<?xml version="1.0" encoding="UTF-8" standalone="no" ?>
<gpx xmlns="http://www.topografix.com/GPX/1/1" xmlns:xsi="http://www.w3.org/2001/XMLSchema-instance" xsi:schemaLocation="http://www.topografix.com/GPX/1/1 http://www.topografix.com/GPX/1/1/gpx.xsd" version="1.1" creator="VisuGPX - https://www.visugpx.com">
  <metadata>
    <name>Randonnée du 31/03/2022 à 14:06</name>
  </metadata>
  <trk>
    <name><![CDATA[Randonnée du 31/03/2022 à 14:06]]></name>
    <extensions>
      <line xmlns="http://www.topografix.com/GPX/gpx_style/0/2">
        <color>0000FF</color>
        <width>4</width>
      </line>
    </extensions>
    <trkseg>
      <trkpt lat="44.16441" lon="0.87483">
        <ele>164.2</ele>
        <time>2022-03-31T14:06:27+02:00</time>
      </trkpt>
      <trkpt lat="44.16432" lon="0.87498">
        <ele>165.5</ele>
        <time>2022-03-31T14:06:46+02:00</time>
      </trkpt>
      <trkpt lat="44.16421" lon="0.87513">
        <ele>166.1</ele>
        <time>2022-03-31T14:06:57+02:00</time>
      </trkpt>
      <trkpt lat="44.1641" lon="0.87532">
        <ele>166.1</ele>
        <time>2022-03-31T14:07:08+02:00</time>
      </trkpt>
      <trkpt lat="44.16396" lon="0.87538">
        <ele>165.6</ele>
        <time>2022-03-31T14:07:20+02:00</time>
      </trkpt>
      <trkpt lat="44.16389" lon="0.87557">
        <ele>165.6</ele>
        <time>2022-03-31T14:07:30+02:00</time>
      </trkpt>
      <trkpt lat="44.16379" lon="0.87571">
        <ele>165.4</ele>
        <time>2022-03-31T14:07:53+02:00</time>
      </trkpt>
      <trkpt lat="44.16367" lon="0.87586">
        <ele>165.3</ele>
        <time>2022-03-31T14:08:05+02:00</time>
      </trkpt>
      <trkpt lat="44.16358" lon="0.87602">
        <ele>165.3</ele>
        <time>2022-03-31T14:08:18+02:00</time>
      </trkpt>
      <trkpt lat="44.16355" lon="0.87624">
        <ele>165.6</ele>
        <time>2022-03-31T14:08:37+02:00</time>
      </trkpt>
      <trkpt lat="44.16348" lon="0.87646">
        <ele>165.7</ele>
        <time>2022-03-31T14:08:52+02:00</time>
      </trkpt>
      <trkpt lat="44.16341" lon="0.87664">
        <ele>165.5</ele>
        <time>2022-03-31T14:09:06+02:00</time>
      </trkpt>
      <trkpt lat="44.16337" lon="0.87682">
        <ele>165.2</ele>
        <time>2022-03-31T14:09:18+02:00</time>
      </trkpt>
      <trkpt lat="44.16334" lon="0.87703">
        <ele>165.1</ele>
        <time>2022-03-31T14:09:32+02:00</time>
      </trkpt>
      <trkpt lat="44.16331" lon="0.87725">
        <ele>164.7</ele>
        <time>2022-03-31T14:09:44+02:00</time>
      </trkpt>
      <trkpt lat="44.16329" lon="0.87744">
        <ele>164.4</ele>
        <time>2022-03-31T14:09:53+02:00</time>
      </trkpt>
      <trkpt lat="44.16316" lon="0.87752">
        <ele>162.4</ele>
        <time>2022-03-31T14:10:06+02:00</time>
      </trkpt>
      <trkpt lat="44.16302" lon="0.87761">
        <ele>160.5</ele>
        <time>2022-03-31T14:10:18+02:00</time>
      </trkpt>
      <trkpt lat="44.16287" lon="0.87769">
        <ele>158.4</ele>
        <time>2022-03-31T14:10:32+02:00</time>
      </trkpt>
      <trkpt lat="44.16274" lon="0.8778">
        <ele>156.4</ele>
        <time>2022-03-31T14:10:47+02:00</time>
      </trkpt>
      <trkpt lat="44.16259" lon="0.87793">
        <ele>154.4</ele>
        <time>2022-03-31T14:10:59+02:00</time>
      </trkpt>
      <trkpt lat="44.16246" lon="0.87803">
        <ele>152.7</ele>
        <time>2022-03-31T14:11:10+02:00</time>
      </trkpt>
      <trkpt lat="44.16234" lon="0.87813">
        <ele>151.9</ele>
        <time>2022-03-31T14:11:19+02:00</time>
      </trkpt>
      <trkpt lat="44.16221" lon="0.87822">
        <ele>151.1</ele>
        <time>2022-03-31T14:11:33+02:00</time>
      </trkpt>
      <trkpt lat="44.16207" lon="0.87832">
        <ele>150.4</ele>
        <time>2022-03-31T14:11:49+02:00</time>
      </trkpt>
      <trkpt lat="44.16193" lon="0.87842">
        <ele>149.9</ele>
        <time>2022-03-31T14:12:01+02:00</time>
      </trkpt>
      <trkpt lat="44.16182" lon="0.87856">
        <ele>149.7</ele>
        <time>2022-03-31T14:12:12+02:00</time>
      </trkpt>
      <trkpt lat="44.1617" lon="0.87869">
        <ele>149.5</ele>
        <time>2022-03-31T14:12:25+02:00</time>
      </trkpt>
      <trkpt lat="44.16156" lon="0.87876">
        <ele>150.3</ele>
        <time>2022-03-31T14:12:37+02:00</time>
      </trkpt>
      <trkpt lat="44.16143" lon="0.87888">
        <ele>151.7</ele>
        <time>2022-03-31T14:12:50+02:00</time>
      </trkpt>
      <trkpt lat="44.16129" lon="0.87897">
        <ele>153</ele>
        <time>2022-03-31T14:13:02+02:00</time>
      </trkpt>
      <trkpt lat="44.16116" lon="0.87908">
        <ele>154.3</ele>
        <time>2022-03-31T14:13:15+02:00</time>
      </trkpt>
      <trkpt lat="44.16103" lon="0.87918">
        <ele>155.6</ele>
        <time>2022-03-31T14:13:26+02:00</time>
      </trkpt>
      <trkpt lat="44.16088" lon="0.87922">
        <ele>156.7</ele>
        <time>2022-03-31T14:13:38+02:00</time>
      </trkpt>
      <trkpt lat="44.16079" lon="0.87936">
        <ele>157.2</ele>
        <time>2022-03-31T14:13:51+02:00</time>
      </trkpt>
      <trkpt lat="44.16069" lon="0.87951">
        <ele>157.4</ele>
        <time>2022-03-31T14:14:06+02:00</time>
      </trkpt>
      <trkpt lat="44.16059" lon="0.87969">
        <ele>157.7</ele>
        <time>2022-03-31T14:14:20+02:00</time>
      </trkpt>
      <trkpt lat="44.16048" lon="0.87986">
        <ele>157.9</ele>
        <time>2022-03-31T14:14:30+02:00</time>
      </trkpt>
      <trkpt lat="44.16037" lon="0.87999">
        <ele>158.1</ele>
        <time>2022-03-31T14:14:45+02:00</time>
      </trkpt>
      <trkpt lat="44.16025" lon="0.88013">
        <ele>158.7</ele>
        <time>2022-03-31T14:14:59+02:00</time>
      </trkpt>
      <trkpt lat="44.16014" lon="0.88025">
        <ele>159.2</ele>
        <time>2022-03-31T14:15:11+02:00</time>
      </trkpt>
      <trkpt lat="44.16003" lon="0.88035">
        <ele>159.8</ele>
        <time>2022-03-31T14:15:20+02:00</time>
      </trkpt>
      <trkpt lat="44.15992" lon="0.88049">
        <ele>161</ele>
        <time>2022-03-31T14:15:30+02:00</time>
      </trkpt>
      <trkpt lat="44.15982" lon="0.88065">
        <ele>161.9</ele>
        <time>2022-03-31T14:15:42+02:00</time>
      </trkpt>
      <trkpt lat="44.15969" lon="0.88073">
        <ele>163</ele>
        <time>2022-03-31T14:15:55+02:00</time>
      </trkpt>
      <trkpt lat="44.15956" lon="0.88085">
        <ele>163.7</ele>
        <time>2022-03-31T14:16:05+02:00</time>
      </trkpt>
      <trkpt lat="44.15946" lon="0.88099">
        <ele>164.2</ele>
        <time>2022-03-31T14:16:20+02:00</time>
      </trkpt>
      <trkpt lat="44.15937" lon="0.88114">
        <ele>164.8</ele>
        <time>2022-03-31T14:16:33+02:00</time>
      </trkpt>
      <trkpt lat="44.15926" lon="0.88125">
        <ele>165.5</ele>
        <time>2022-03-31T14:16:49+02:00</time>
      </trkpt>
      <trkpt lat="44.15914" lon="0.88138">
        <ele>166.4</ele>
        <time>2022-03-31T14:17:05+02:00</time>
      </trkpt>
      <trkpt lat="44.15904" lon="0.88153">
        <ele>167.8</ele>
        <time>2022-03-31T14:17:15+02:00</time>
      </trkpt>
      <trkpt lat="44.1589" lon="0.88169">
        <ele>169.9</ele>
        <time>2022-03-31T14:17:27+02:00</time>
      </trkpt>
      <trkpt lat="44.15879" lon="0.88183">
        <ele>172</ele>
        <time>2022-03-31T14:17:40+02:00</time>
      </trkpt>
      <trkpt lat="44.15869" lon="0.88198">
        <ele>174</ele>
        <time>2022-03-31T14:17:53+02:00</time>
      </trkpt>
      <trkpt lat="44.1586" lon="0.88212">
        <ele>175.8</ele>
        <time>2022-03-31T14:18:07+02:00</time>
      </trkpt>
      <trkpt lat="44.15847" lon="0.88225">
        <ele>178.2</ele>
        <time>2022-03-31T14:18:21+02:00</time>
      </trkpt>
      <trkpt lat="44.15836" lon="0.8824">
        <ele>180.2</ele>
        <time>2022-03-31T14:18:33+02:00</time>
      </trkpt>
      <trkpt lat="44.15831" lon="0.88258">
        <ele>181.1</ele>
        <time>2022-03-31T14:18:49+02:00</time>
      </trkpt>
      <trkpt lat="44.15822" lon="0.88273">
        <ele>180.8</ele>
        <time>2022-03-31T14:18:59+02:00</time>
      </trkpt>
      <trkpt lat="44.15807" lon="0.88279">
        <ele>179.6</ele>
        <time>2022-03-31T14:19:11+02:00</time>
      </trkpt>
      <trkpt lat="44.15793" lon="0.88288">
        <ele>178.6</ele>
        <time>2022-03-31T14:19:26+02:00</time>
      </trkpt>
      <trkpt lat="44.15782" lon="0.88303">
        <ele>177.8</ele>
        <time>2022-03-31T14:19:38+02:00</time>
      </trkpt>
      <trkpt lat="44.15769" lon="0.88313">
        <ele>176.7</ele>
        <time>2022-03-31T14:19:56+02:00</time>
      </trkpt>
      <trkpt lat="44.15764" lon="0.88333">
        <ele>176.5</ele>
        <time>2022-03-31T14:20:09+02:00</time>
      </trkpt>
      <trkpt lat="44.1576" lon="0.88352">
        <ele>176.5</ele>
        <time>2022-03-31T14:20:19+02:00</time>
      </trkpt>
      <trkpt lat="44.15751" lon="0.88367">
        <ele>175.9</ele>
        <time>2022-03-31T14:20:59+02:00</time>
      </trkpt>
      <trkpt lat="44.15742" lon="0.88384">
        <ele>175.2</ele>
        <time>2022-03-31T14:21:51+02:00</time>
      </trkpt>
      <trkpt lat="44.1573" lon="0.88394">
        <ele>173.7</ele>
        <time>2022-03-31T14:23:54+02:00</time>
      </trkpt>
      <trkpt lat="44.15735" lon="0.88375">
        <ele>173.9</ele>
        <time>2022-03-31T14:25:32+02:00</time>
      </trkpt>
      <trkpt lat="44.15739" lon="0.88356">
        <ele>174.1</ele>
        <time>2022-03-31T14:25:45+02:00</time>
      </trkpt>
      <trkpt lat="44.15737" lon="0.88335">
        <ele>173.3</ele>
        <time>2022-03-31T14:25:59+02:00</time>
      </trkpt>
      <trkpt lat="44.15731" lon="0.88318">
        <ele>172.2</ele>
        <time>2022-03-31T14:26:11+02:00</time>
      </trkpt>
      <trkpt lat="44.15717" lon="0.88314">
        <ele>170.4</ele>
        <time>2022-03-31T14:26:26+02:00</time>
      </trkpt>
      <trkpt lat="44.15704" lon="0.88308">
        <ele>168.6</ele>
        <time>2022-03-31T14:26:37+02:00</time>
      </trkpt>
      <trkpt lat="44.15689" lon="0.88308">
        <ele>166.6</ele>
        <time>2022-03-31T14:26:50+02:00</time>
      </trkpt>
      <trkpt lat="44.15674" lon="0.88302">
        <ele>164.6</ele>
        <time>2022-03-31T14:27:04+02:00</time>
      </trkpt>
      <trkpt lat="44.15661" lon="0.88304">
        <ele>163</ele>
        <time>2022-03-31T14:27:14+02:00</time>
      </trkpt>
      <trkpt lat="44.15645" lon="0.88305">
        <ele>161.4</ele>
        <time>2022-03-31T14:27:33+02:00</time>
      </trkpt>
      <trkpt lat="44.15629" lon="0.88304">
        <ele>159.7</ele>
        <time>2022-03-31T14:27:45+02:00</time>
      </trkpt>
      <trkpt lat="44.15614" lon="0.88303">
        <ele>158.1</ele>
        <time>2022-03-31T14:27:57+02:00</time>
      </trkpt>
      <trkpt lat="44.15599" lon="0.88303">
        <ele>156.6</ele>
        <time>2022-03-31T14:28:09+02:00</time>
      </trkpt>
      <trkpt lat="44.15584" lon="0.88302">
        <ele>155.1</ele>
        <time>2022-03-31T14:28:20+02:00</time>
      </trkpt>
      <trkpt lat="44.1557" lon="0.883">
        <ele>154.5</ele>
        <time>2022-03-31T14:28:31+02:00</time>
      </trkpt>
      <trkpt lat="44.15556" lon="0.88297">
        <ele>153.9</ele>
        <time>2022-03-31T14:28:42+02:00</time>
      </trkpt>
      <trkpt lat="44.15542" lon="0.88293">
        <ele>153.3</ele>
        <time>2022-03-31T14:28:56+02:00</time>
      </trkpt>
      <trkpt lat="44.15529" lon="0.88292">
        <ele>152.7</ele>
        <time>2022-03-31T14:29:08+02:00</time>
      </trkpt>
      <trkpt lat="44.15515" lon="0.88292">
        <ele>152.1</ele>
        <time>2022-03-31T14:29:17+02:00</time>
      </trkpt>
      <trkpt lat="44.15499" lon="0.88291">
        <ele>151.6</ele>
        <time>2022-03-31T14:29:29+02:00</time>
      </trkpt>
      <trkpt lat="44.15484" lon="0.88293">
        <ele>153.2</ele>
        <time>2022-03-31T14:29:40+02:00</time>
      </trkpt>
      <trkpt lat="44.15471" lon="0.88293">
        <ele>154.7</ele>
        <time>2022-03-31T14:29:51+02:00</time>
      </trkpt>
      <trkpt lat="44.15465" lon="0.88272">
        <ele>154.2</ele>
        <time>2022-03-31T14:30:06+02:00</time>
      </trkpt>
      <trkpt lat="44.15457" lon="0.88254">
        <ele>153.9</ele>
        <time>2022-03-31T14:30:21+02:00</time>
      </trkpt>
      <trkpt lat="44.15454" lon="0.88234">
        <ele>152.6</ele>
        <time>2022-03-31T14:30:35+02:00</time>
      </trkpt>
      <trkpt lat="44.15447" lon="0.88217">
        <ele>151.7</ele>
        <time>2022-03-31T14:30:48+02:00</time>
      </trkpt>
      <trkpt lat="44.15442" lon="0.88199">
        <ele>150.5</ele>
        <time>2022-03-31T14:30:59+02:00</time>
      </trkpt>
      <trkpt lat="44.15437" lon="0.88179">
        <ele>149.1</ele>
        <time>2022-03-31T14:31:12+02:00</time>
      </trkpt>
      <trkpt lat="44.15432" lon="0.88161">
        <ele>148</ele>
        <time>2022-03-31T14:31:23+02:00</time>
      </trkpt>
      <trkpt lat="44.15425" lon="0.88143">
        <ele>147.3</ele>
        <time>2022-03-31T14:31:40+02:00</time>
      </trkpt>
      <trkpt lat="44.15421" lon="0.88124">
        <ele>146.4</ele>
        <time>2022-03-31T14:31:52+02:00</time>
      </trkpt>
      <trkpt lat="44.15421" lon="0.88103">
        <ele>145.2</ele>
        <time>2022-03-31T14:32:06+02:00</time>
      </trkpt>
      <trkpt lat="44.15411" lon="0.88088">
        <ele>144.3</ele>
        <time>2022-03-31T14:32:18+02:00</time>
      </trkpt>
      <trkpt lat="44.15402" lon="0.88072">
        <ele>143.5</ele>
        <time>2022-03-31T14:32:32+02:00</time>
      </trkpt>
      <trkpt lat="44.15392" lon="0.88058">
        <ele>142.8</ele>
        <time>2022-03-31T14:32:52+02:00</time>
      </trkpt>
      <trkpt lat="44.1538" lon="0.88042">
        <ele>141.9</ele>
        <time>2022-03-31T14:33:03+02:00</time>
      </trkpt>
      <trkpt lat="44.15375" lon="0.88021">
        <ele>140.7</ele>
        <time>2022-03-31T14:33:16+02:00</time>
      </trkpt>
      <trkpt lat="44.15365" lon="0.88005">
        <ele>139.5</ele>
        <time>2022-03-31T14:33:30+02:00</time>
      </trkpt>
      <trkpt lat="44.15353" lon="0.87987">
        <ele>138.6</ele>
        <time>2022-03-31T14:33:44+02:00</time>
      </trkpt>
      <trkpt lat="44.15341" lon="0.87973">
        <ele>137.5</ele>
        <time>2022-03-31T14:33:56+02:00</time>
      </trkpt>
      <trkpt lat="44.15327" lon="0.8796">
        <ele>136.9</ele>
        <time>2022-03-31T14:34:09+02:00</time>
      </trkpt>
      <trkpt lat="44.15317" lon="0.87947">
        <ele>137.1</ele>
        <time>2022-03-31T14:34:22+02:00</time>
      </trkpt>
      <trkpt lat="44.15309" lon="0.8793">
        <ele>137.1</ele>
        <time>2022-03-31T14:34:33+02:00</time>
      </trkpt>
      <trkpt lat="44.15302" lon="0.87912">
        <ele>137.2</ele>
        <time>2022-03-31T14:34:48+02:00</time>
      </trkpt>
      <trkpt lat="44.15294" lon="0.87893">
        <ele>137.2</ele>
        <time>2022-03-31T14:35:03+02:00</time>
      </trkpt>
      <trkpt lat="44.15284" lon="0.87877">
        <ele>137.1</ele>
        <time>2022-03-31T14:35:18+02:00</time>
      </trkpt>
      <trkpt lat="44.15279" lon="0.87858">
        <ele>136.4</ele>
        <time>2022-03-31T14:35:34+02:00</time>
      </trkpt>
      <trkpt lat="44.15268" lon="0.87845">
        <ele>135.9</ele>
        <time>2022-03-31T14:35:45+02:00</time>
      </trkpt>
      <trkpt lat="44.15258" lon="0.87832">
        <ele>135</ele>
        <time>2022-03-31T14:35:58+02:00</time>
      </trkpt>
      <trkpt lat="44.15247" lon="0.87818">
        <ele>134.4</ele>
        <time>2022-03-31T14:36:15+02:00</time>
      </trkpt>
      <trkpt lat="44.15236" lon="0.87802">
        <ele>134.6</ele>
        <time>2022-03-31T14:36:28+02:00</time>
      </trkpt>
      <trkpt lat="44.15227" lon="0.87787">
        <ele>134.4</ele>
        <time>2022-03-31T14:37:02+02:00</time>
      </trkpt>
      <trkpt lat="44.15212" lon="0.87779">
        <ele>135.1</ele>
        <time>2022-03-31T14:37:56+02:00</time>
      </trkpt>
      <trkpt lat="44.15205" lon="0.87759">
        <ele>134.1</ele>
        <time>2022-03-31T14:38:03+02:00</time>
      </trkpt>
      <trkpt lat="44.15204" lon="0.8774">
        <ele>132.6</ele>
        <time>2022-03-31T14:38:16+02:00</time>
      </trkpt>
      <trkpt lat="44.15198" lon="0.87723">
        <ele>131.8</ele>
        <time>2022-03-31T14:38:30+02:00</time>
      </trkpt>
      <trkpt lat="44.15195" lon="0.87703">
        <ele>130.4</ele>
        <time>2022-03-31T14:38:41+02:00</time>
      </trkpt>
      <trkpt lat="44.15194" lon="0.87681">
        <ele>128.8</ele>
        <time>2022-03-31T14:38:55+02:00</time>
      </trkpt>
      <trkpt lat="44.15194" lon="0.87661">
        <ele>127.4</ele>
        <time>2022-03-31T14:39:07+02:00</time>
      </trkpt>
      <trkpt lat="44.15197" lon="0.87639">
        <ele>126.3</ele>
        <time>2022-03-31T14:39:25+02:00</time>
      </trkpt>
      <trkpt lat="44.15198" lon="0.8762">
        <ele>125.3</ele>
        <time>2022-03-31T14:39:45+02:00</time>
      </trkpt>
      <trkpt lat="44.15196" lon="0.87599">
        <ele>124.4</ele>
        <time>2022-03-31T14:39:54+02:00</time>
      </trkpt>
      <trkpt lat="44.1519" lon="0.87581">
        <ele>124</ele>
        <time>2022-03-31T14:40:05+02:00</time>
      </trkpt>
      <trkpt lat="44.15189" lon="0.87559">
        <ele>124.9</ele>
        <time>2022-03-31T14:40:17+02:00</time>
      </trkpt>
      <trkpt lat="44.15189" lon="0.8754">
        <ele>125.6</ele>
        <time>2022-03-31T14:40:27+02:00</time>
      </trkpt>
      <trkpt lat="44.1519" lon="0.87521">
        <ele>126.2</ele>
        <time>2022-03-31T14:40:36+02:00</time>
      </trkpt>
      <trkpt lat="44.15195" lon="0.87498">
        <ele>126.4</ele>
        <time>2022-03-31T14:40:47+02:00</time>
      </trkpt>
      <trkpt lat="44.15198" lon="0.87479">
        <ele>127.4</ele>
        <time>2022-03-31T14:40:57+02:00</time>
      </trkpt>
      <trkpt lat="44.15201" lon="0.8746">
        <ele>128.1</ele>
        <time>2022-03-31T14:41:08+02:00</time>
      </trkpt>
      <trkpt lat="44.15204" lon="0.87439">
        <ele>129</ele>
        <time>2022-03-31T14:41:21+02:00</time>
      </trkpt>
      <trkpt lat="44.15211" lon="0.87421">
        <ele>128.8</ele>
        <time>2022-03-31T14:41:36+02:00</time>
      </trkpt>
      <trkpt lat="44.15213" lon="0.87401">
        <ele>129.1</ele>
        <time>2022-03-31T14:41:45+02:00</time>
      </trkpt>
      <trkpt lat="44.15219" lon="0.87383">
        <ele>128.3</ele>
        <time>2022-03-31T14:41:57+02:00</time>
      </trkpt>
      <trkpt lat="44.15223" lon="0.87364">
        <ele>128</ele>
        <time>2022-03-31T14:42:10+02:00</time>
      </trkpt>
      <trkpt lat="44.15222" lon="0.87342">
        <ele>128.9</ele>
        <time>2022-03-31T14:42:20+02:00</time>
      </trkpt>
      <trkpt lat="44.15224" lon="0.87321">
        <ele>127.9</ele>
        <time>2022-03-31T14:42:32+02:00</time>
      </trkpt>
      <trkpt lat="44.15224" lon="0.87299">
        <ele>126.5</ele>
        <time>2022-03-31T14:42:42+02:00</time>
      </trkpt>
      <trkpt lat="44.1523" lon="0.87279">
        <ele>124.3</ele>
        <time>2022-03-31T14:42:52+02:00</time>
      </trkpt>
      <trkpt lat="44.15237" lon="0.8726">
        <ele>122.2</ele>
        <time>2022-03-31T14:43:04+02:00</time>
      </trkpt>
      <trkpt lat="44.15241" lon="0.87241">
        <ele>120.5</ele>
        <time>2022-03-31T14:43:14+02:00</time>
      </trkpt>
      <trkpt lat="44.15251" lon="0.87225">
        <ele>118.4</ele>
        <time>2022-03-31T14:43:31+02:00</time>
      </trkpt>
      <trkpt lat="44.15262" lon="0.87215">
        <ele>116.6</ele>
        <time>2022-03-31T14:45:13+02:00</time>
      </trkpt>
      <trkpt lat="44.15248" lon="0.87209">
        <ele>117.7</ele>
        <time>2022-03-31T14:45:24+02:00</time>
      </trkpt>
      <trkpt lat="44.15232" lon="0.87208">
        <ele>119.3</ele>
        <time>2022-03-31T14:45:36+02:00</time>
      </trkpt>
      <trkpt lat="44.15216" lon="0.87202">
        <ele>120.4</ele>
        <time>2022-03-31T14:45:47+02:00</time>
      </trkpt>
      <trkpt lat="44.15203" lon="0.87195">
        <ele>121.1</ele>
        <time>2022-03-31T14:46:02+02:00</time>
      </trkpt>
      <trkpt lat="44.15188" lon="0.87202">
        <ele>123.1</ele>
        <time>2022-03-31T14:46:27+02:00</time>
      </trkpt>
      <trkpt lat="44.15174" lon="0.87208">
        <ele>125.3</ele>
        <time>2022-03-31T14:46:42+02:00</time>
      </trkpt>
      <trkpt lat="44.15157" lon="0.87212">
        <ele>127</ele>
        <time>2022-03-31T14:46:58+02:00</time>
      </trkpt>
      <trkpt lat="44.15143" lon="0.87219">
        <ele>128.4</ele>
        <time>2022-03-31T14:47:14+02:00</time>
      </trkpt>
      <trkpt lat="44.15129" lon="0.87227">
        <ele>129.9</ele>
        <time>2022-03-31T14:47:27+02:00</time>
      </trkpt>
      <trkpt lat="44.15113" lon="0.87226">
        <ele>130.5</ele>
        <time>2022-03-31T14:47:43+02:00</time>
      </trkpt>
      <trkpt lat="44.151" lon="0.8722">
        <ele>130.8</ele>
        <time>2022-03-31T14:48:12+02:00</time>
      </trkpt>
      <trkpt lat="44.15085" lon="0.87222">
        <ele>131.6</ele>
        <time>2022-03-31T14:48:54+02:00</time>
      </trkpt>
      <trkpt lat="44.15075" lon="0.87235">
        <ele>132.6</ele>
        <time>2022-03-31T14:49:13+02:00</time>
      </trkpt>
      <trkpt lat="44.15064" lon="0.87247">
        <ele>133.4</ele>
        <time>2022-03-31T14:49:28+02:00</time>
      </trkpt>
      <trkpt lat="44.1505" lon="0.87252">
        <ele>134</ele>
        <time>2022-03-31T14:49:44+02:00</time>
      </trkpt>
      <trkpt lat="44.15037" lon="0.87261">
        <ele>135.2</ele>
        <time>2022-03-31T14:49:59+02:00</time>
      </trkpt>
      <trkpt lat="44.1502" lon="0.87267">
        <ele>136</ele>
        <time>2022-03-31T14:50:18+02:00</time>
      </trkpt>
      <trkpt lat="44.15007" lon="0.87273">
        <ele>136.6</ele>
        <time>2022-03-31T14:50:27+02:00</time>
      </trkpt>
      <trkpt lat="44.14992" lon="0.87278">
        <ele>137.7</ele>
        <time>2022-03-31T14:50:39+02:00</time>
      </trkpt>
      <trkpt lat="44.14978" lon="0.87288">
        <ele>139.6</ele>
        <time>2022-03-31T14:50:51+02:00</time>
      </trkpt>
      <trkpt lat="44.14962" lon="0.87287">
        <ele>140.9</ele>
        <time>2022-03-31T14:51:15+02:00</time>
      </trkpt>
      <trkpt lat="44.14946" lon="0.87289">
        <ele>142.4</ele>
        <time>2022-03-31T14:51:25+02:00</time>
      </trkpt>
      <trkpt lat="44.14931" lon="0.87285">
        <ele>143.3</ele>
        <time>2022-03-31T14:51:35+02:00</time>
      </trkpt>
      <trkpt lat="44.14917" lon="0.87288">
        <ele>144.7</ele>
        <time>2022-03-31T14:51:42+02:00</time>
      </trkpt>
      <trkpt lat="44.14902" lon="0.8729">
        <ele>146.7</ele>
        <time>2022-03-31T14:51:59+02:00</time>
      </trkpt>
      <trkpt lat="44.14887" lon="0.87285">
        <ele>148.3</ele>
        <time>2022-03-31T14:52:14+02:00</time>
      </trkpt>
      <trkpt lat="44.14872" lon="0.87292">
        <ele>150.7</ele>
        <time>2022-03-31T14:52:26+02:00</time>
      </trkpt>
      <trkpt lat="44.14858" lon="0.87295">
        <ele>152.5</ele>
        <time>2022-03-31T14:52:39+02:00</time>
      </trkpt>
      <trkpt lat="44.14845" lon="0.873">
        <ele>154.4</ele>
        <time>2022-03-31T14:52:54+02:00</time>
      </trkpt>
      <trkpt lat="44.1483" lon="0.87305">
        <ele>156.9</ele>
        <time>2022-03-31T14:53:10+02:00</time>
      </trkpt>
      <trkpt lat="44.14821" lon="0.87321">
        <ele>159.8</ele>
        <time>2022-03-31T14:53:27+02:00</time>
      </trkpt>
      <trkpt lat="44.14809" lon="0.8733">
        <ele>163.1</ele>
        <time>2022-03-31T14:53:50+02:00</time>
      </trkpt>
      <trkpt lat="44.14796" lon="0.87341">
        <ele>166.6</ele>
        <time>2022-03-31T14:54:02+02:00</time>
      </trkpt>
      <trkpt lat="44.14784" lon="0.87352">
        <ele>169.4</ele>
        <time>2022-03-31T14:54:14+02:00</time>
      </trkpt>
      <trkpt lat="44.1477" lon="0.87364">
        <ele>172.6</ele>
        <time>2022-03-31T14:54:26+02:00</time>
      </trkpt>
      <trkpt lat="44.14758" lon="0.87372">
        <ele>175.3</ele>
        <time>2022-03-31T14:54:37+02:00</time>
      </trkpt>
      <trkpt lat="44.14746" lon="0.87385">
        <ele>176.9</ele>
        <time>2022-03-31T14:54:51+02:00</time>
      </trkpt>
      <trkpt lat="44.14734" lon="0.87391">
        <ele>177.2</ele>
        <time>2022-03-31T14:55:04+02:00</time>
      </trkpt>
      <trkpt lat="44.1472" lon="0.87401">
        <ele>177.3</ele>
        <time>2022-03-31T14:55:17+02:00</time>
      </trkpt>
      <trkpt lat="44.14713" lon="0.87416">
        <ele>176.9</ele>
        <time>2022-03-31T14:55:31+02:00</time>
      </trkpt>
      <trkpt lat="44.14703" lon="0.8743">
        <ele>176.8</ele>
        <time>2022-03-31T14:55:43+02:00</time>
      </trkpt>
      <trkpt lat="44.14693" lon="0.87443">
        <ele>176.7</ele>
        <time>2022-03-31T14:55:58+02:00</time>
      </trkpt>
      <trkpt lat="44.14681" lon="0.87455">
        <ele>176.5</ele>
        <time>2022-03-31T14:56:14+02:00</time>
      </trkpt>
      <trkpt lat="44.14667" lon="0.87464">
        <ele>176.3</ele>
        <time>2022-03-31T14:56:38+02:00</time>
      </trkpt>
      <trkpt lat="44.14653" lon="0.87474">
        <ele>174.5</ele>
        <time>2022-03-31T14:56:54+02:00</time>
      </trkpt>
      <trkpt lat="44.14644" lon="0.87488">
        <ele>173</ele>
        <time>2022-03-31T14:57:09+02:00</time>
      </trkpt>
      <trkpt lat="44.1464" lon="0.87508">
        <ele>172.3</ele>
        <time>2022-03-31T14:59:20+02:00</time>
      </trkpt>
      <trkpt lat="44.14627" lon="0.87512">
        <ele>170.8</ele>
        <time>2022-03-31T15:00:08+02:00</time>
      </trkpt>
      <trkpt lat="44.14614" lon="0.87525">
        <ele>169.6</ele>
        <time>2022-03-31T15:00:23+02:00</time>
      </trkpt>
      <trkpt lat="44.14601" lon="0.87537">
        <ele>168.4</ele>
        <time>2022-03-31T15:00:35+02:00</time>
      </trkpt>
      <trkpt lat="44.14587" lon="0.87548">
        <ele>166.9</ele>
        <time>2022-03-31T15:00:47+02:00</time>
      </trkpt>
      <trkpt lat="44.14575" lon="0.8756">
        <ele>165.9</ele>
        <time>2022-03-31T15:01:00+02:00</time>
      </trkpt>
      <trkpt lat="44.1457" lon="0.87541">
        <ele>165.1</ele>
        <time>2022-03-31T15:01:17+02:00</time>
      </trkpt>
      <trkpt lat="44.14572" lon="0.87521">
        <ele>165</ele>
        <time>2022-03-31T15:01:30+02:00</time>
      </trkpt>
      <trkpt lat="44.1457" lon="0.87499">
        <ele>164.4</ele>
        <time>2022-03-31T15:01:41+02:00</time>
      </trkpt>
      <trkpt lat="44.14573" lon="0.87479">
        <ele>165.7</ele>
        <time>2022-03-31T15:01:53+02:00</time>
      </trkpt>
      <trkpt lat="44.14573" lon="0.87456">
        <ele>166.8</ele>
        <time>2022-03-31T15:02:05+02:00</time>
      </trkpt>
      <trkpt lat="44.14571" lon="0.87434">
        <ele>167.6</ele>
        <time>2022-03-31T15:02:18+02:00</time>
      </trkpt>
      <trkpt lat="44.14569" lon="0.87415">
        <ele>168.2</ele>
        <time>2022-03-31T15:02:30+02:00</time>
      </trkpt>
      <trkpt lat="44.14568" lon="0.87395">
        <ele>168.8</ele>
        <time>2022-03-31T15:02:41+02:00</time>
      </trkpt>
      <trkpt lat="44.1456" lon="0.87378">
        <ele>168.2</ele>
        <time>2022-03-31T15:02:53+02:00</time>
      </trkpt>
      <trkpt lat="44.14557" lon="0.87358">
        <ele>168.5</ele>
        <time>2022-03-31T15:03:07+02:00</time>
      </trkpt>
      <trkpt lat="44.14559" lon="0.87336">
        <ele>169.5</ele>
        <time>2022-03-31T15:03:22+02:00</time>
      </trkpt>
      <trkpt lat="44.14559" lon="0.87314">
        <ele>169.6</ele>
        <time>2022-03-31T15:03:33+02:00</time>
      </trkpt>
      <trkpt lat="44.14567" lon="0.87296">
        <ele>171.1</ele>
        <time>2022-03-31T15:03:44+02:00</time>
      </trkpt>
      <trkpt lat="44.14569" lon="0.87278">
        <ele>171.4</ele>
        <time>2022-03-31T15:03:53+02:00</time>
      </trkpt>
      <trkpt lat="44.14577" lon="0.87258">
        <ele>172.8</ele>
        <time>2022-03-31T15:04:04+02:00</time>
      </trkpt>
      <trkpt lat="44.1458" lon="0.87238">
        <ele>173.6</ele>
        <time>2022-03-31T15:04:15+02:00</time>
      </trkpt>
      <trkpt lat="44.14579" lon="0.87218">
        <ele>173.6</ele>
        <time>2022-03-31T15:04:28+02:00</time>
      </trkpt>
      <trkpt lat="44.14583" lon="0.87198">
        <ele>174.6</ele>
        <time>2022-03-31T15:04:40+02:00</time>
      </trkpt>
      <trkpt lat="44.14593" lon="0.8718">
        <ele>176.1</ele>
        <time>2022-03-31T15:04:51+02:00</time>
      </trkpt>
      <trkpt lat="44.146" lon="0.87163">
        <ele>177.2</ele>
        <time>2022-03-31T15:05:00+02:00</time>
      </trkpt>
      <trkpt lat="44.14602" lon="0.87144">
        <ele>177.4</ele>
        <time>2022-03-31T15:05:11+02:00</time>
      </trkpt>
      <trkpt lat="44.14604" lon="0.87125">
        <ele>177.5</ele>
        <time>2022-03-31T15:05:31+02:00</time>
      </trkpt>
      <trkpt lat="44.14607" lon="0.87104">
        <ele>177.8</ele>
        <time>2022-03-31T15:05:44+02:00</time>
      </trkpt>
      <trkpt lat="44.14612" lon="0.87083">
        <ele>178.5</ele>
        <time>2022-03-31T15:05:56+02:00</time>
      </trkpt>
      <trkpt lat="44.14613" lon="0.87064">
        <ele>178</ele>
        <time>2022-03-31T15:06:03+02:00</time>
      </trkpt>
      <trkpt lat="44.14617" lon="0.87041">
        <ele>177.9</ele>
        <time>2022-03-31T15:06:14+02:00</time>
      </trkpt>
      <trkpt lat="44.14621" lon="0.87016">
        <ele>177.5</ele>
        <time>2022-03-31T15:06:24+02:00</time>
      </trkpt>
      <trkpt lat="44.14623" lon="0.86997">
        <ele>177</ele>
        <time>2022-03-31T15:06:33+02:00</time>
      </trkpt>
      <trkpt lat="44.14622" lon="0.86976">
        <ele>175</ele>
        <time>2022-03-31T15:06:44+02:00</time>
      </trkpt>
      <trkpt lat="44.1463" lon="0.86957">
        <ele>174.2</ele>
        <time>2022-03-31T15:06:55+02:00</time>
      </trkpt>
      <trkpt lat="44.14633" lon="0.86935">
        <ele>172.5</ele>
        <time>2022-03-31T15:07:06+02:00</time>
      </trkpt>
      <trkpt lat="44.14634" lon="0.86914">
        <ele>170.6</ele>
        <time>2022-03-31T15:07:17+02:00</time>
      </trkpt>
      <trkpt lat="44.1464" lon="0.86894">
        <ele>169.5</ele>
        <time>2022-03-31T15:07:29+02:00</time>
      </trkpt>
      <trkpt lat="44.14646" lon="0.86875">
        <ele>168.5</ele>
        <time>2022-03-31T15:07:42+02:00</time>
      </trkpt>
      <trkpt lat="44.14651" lon="0.86855">
        <ele>167.3</ele>
        <time>2022-03-31T15:07:54+02:00</time>
      </trkpt>
      <trkpt lat="44.14656" lon="0.86834">
        <ele>166</ele>
        <time>2022-03-31T15:08:06+02:00</time>
      </trkpt>
      <trkpt lat="44.14661" lon="0.86816">
        <ele>165.2</ele>
        <time>2022-03-31T15:08:19+02:00</time>
      </trkpt>
      <trkpt lat="44.14666" lon="0.86797">
        <ele>164.3</ele>
        <time>2022-03-31T15:08:31+02:00</time>
      </trkpt>
      <trkpt lat="44.1467" lon="0.86779">
        <ele>163.5</ele>
        <time>2022-03-31T15:08:54+02:00</time>
      </trkpt>
      <trkpt lat="44.14678" lon="0.8676">
        <ele>163.3</ele>
        <time>2022-03-31T15:09:07+02:00</time>
      </trkpt>
      <trkpt lat="44.14679" lon="0.86739">
        <ele>162.6</ele>
        <time>2022-03-31T15:09:17+02:00</time>
      </trkpt>
      <trkpt lat="44.14679" lon="0.86719">
        <ele>162.1</ele>
        <time>2022-03-31T15:09:28+02:00</time>
      </trkpt>
      <trkpt lat="44.14678" lon="0.867">
        <ele>161.4</ele>
        <time>2022-03-31T15:09:37+02:00</time>
      </trkpt>
      <trkpt lat="44.14683" lon="0.8668">
        <ele>161.7</ele>
        <time>2022-03-31T15:09:48+02:00</time>
      </trkpt>
      <trkpt lat="44.14686" lon="0.86661">
        <ele>161.9</ele>
        <time>2022-03-31T15:10:00+02:00</time>
      </trkpt>
      <trkpt lat="44.1469" lon="0.86639">
        <ele>162.9</ele>
        <time>2022-03-31T15:10:12+02:00</time>
      </trkpt>
      <trkpt lat="44.14697" lon="0.86619">
        <ele>164.3</ele>
        <time>2022-03-31T15:10:28+02:00</time>
      </trkpt>
      <trkpt lat="44.14699" lon="0.86599">
        <ele>165</ele>
        <time>2022-03-31T15:10:39+02:00</time>
      </trkpt>
      <trkpt lat="44.14699" lon="0.86579">
        <ele>165.5</ele>
        <time>2022-03-31T15:10:48+02:00</time>
      </trkpt>
      <trkpt lat="44.14704" lon="0.86556">
        <ele>167.8</ele>
        <time>2022-03-31T15:10:58+02:00</time>
      </trkpt>
      <trkpt lat="44.1471" lon="0.86538">
        <ele>169.7</ele>
        <time>2022-03-31T15:11:09+02:00</time>
      </trkpt>
      <trkpt lat="44.14711" lon="0.86515">
        <ele>171.3</ele>
        <time>2022-03-31T15:11:22+02:00</time>
      </trkpt>
      <trkpt lat="44.14709" lon="0.86494">
        <ele>172.6</ele>
        <time>2022-03-31T15:11:37+02:00</time>
      </trkpt>
      <trkpt lat="44.14714" lon="0.86473">
        <ele>174.6</ele>
        <time>2022-03-31T15:11:48+02:00</time>
      </trkpt>
      <trkpt lat="44.14718" lon="0.86452">
        <ele>176.5</ele>
        <time>2022-03-31T15:12:01+02:00</time>
      </trkpt>
      <trkpt lat="44.14723" lon="0.86431">
        <ele>178.4</ele>
        <time>2022-03-31T15:12:13+02:00</time>
      </trkpt>
      <trkpt lat="44.14732" lon="0.86413">
        <ele>179.8</ele>
        <time>2022-03-31T15:12:27+02:00</time>
      </trkpt>
      <trkpt lat="44.14738" lon="0.86394">
        <ele>179.2</ele>
        <time>2022-03-31T15:12:38+02:00</time>
      </trkpt>
      <trkpt lat="44.14744" lon="0.86376">
        <ele>178.5</ele>
        <time>2022-03-31T15:13:04+02:00</time>
      </trkpt>
      <trkpt lat="44.14754" lon="0.8636">
        <ele>177.2</ele>
        <time>2022-03-31T15:13:40+02:00</time>
      </trkpt>
      <trkpt lat="44.14744" lon="0.86347">
        <ele>176.9</ele>
        <time>2022-03-31T15:14:16+02:00</time>
      </trkpt>
      <trkpt lat="44.1473" lon="0.86337">
        <ele>176.9</ele>
        <time>2022-03-31T15:14:36+02:00</time>
      </trkpt>
      <trkpt lat="44.14715" lon="0.86329">
        <ele>177.1</ele>
        <time>2022-03-31T15:14:49+02:00</time>
      </trkpt>
      <trkpt lat="44.14707" lon="0.8631">
        <ele>176.9</ele>
        <time>2022-03-31T15:15:03+02:00</time>
      </trkpt>
      <trkpt lat="44.1471" lon="0.8629">
        <ele>176.1</ele>
        <time>2022-03-31T15:15:14+02:00</time>
      </trkpt>
      <trkpt lat="44.14717" lon="0.86272">
        <ele>175.1</ele>
        <time>2022-03-31T15:15:27+02:00</time>
      </trkpt>
      <trkpt lat="44.14722" lon="0.86252">
        <ele>174.1</ele>
        <time>2022-03-31T15:15:37+02:00</time>
      </trkpt>
      <trkpt lat="44.14731" lon="0.86234">
        <ele>172.9</ele>
        <time>2022-03-31T15:15:50+02:00</time>
      </trkpt>
      <trkpt lat="44.1474" lon="0.86215">
        <ele>171.9</ele>
        <time>2022-03-31T15:16:04+02:00</time>
      </trkpt>
      <trkpt lat="44.14734" lon="0.86192">
        <ele>171.6</ele>
        <time>2022-03-31T15:16:30+02:00</time>
      </trkpt>
      <trkpt lat="44.14725" lon="0.86176">
        <ele>171.8</ele>
        <time>2022-03-31T15:16:40+02:00</time>
      </trkpt>
      <trkpt lat="44.14732" lon="0.86154">
        <ele>170.4</ele>
        <time>2022-03-31T15:16:52+02:00</time>
      </trkpt>
      <trkpt lat="44.14733" lon="0.86132">
        <ele>169.2</ele>
        <time>2022-03-31T15:17:07+02:00</time>
      </trkpt>
      <trkpt lat="44.14743" lon="0.86118">
        <ele>167.6</ele>
        <time>2022-03-31T15:17:20+02:00</time>
      </trkpt>
      <trkpt lat="44.14747" lon="0.86099">
        <ele>166.3</ele>
        <time>2022-03-31T15:17:32+02:00</time>
      </trkpt>
      <trkpt lat="44.14747" lon="0.8608">
        <ele>165</ele>
        <time>2022-03-31T15:17:47+02:00</time>
      </trkpt>
      <trkpt lat="44.14749" lon="0.86061">
        <ele>162.9</ele>
        <time>2022-03-31T15:18:05+02:00</time>
      </trkpt>
      <trkpt lat="44.14757" lon="0.86045">
        <ele>160.4</ele>
        <time>2022-03-31T15:18:15+02:00</time>
      </trkpt>
      <trkpt lat="44.1476" lon="0.86022">
        <ele>158.3</ele>
        <time>2022-03-31T15:18:30+02:00</time>
      </trkpt>
      <trkpt lat="44.14759" lon="0.86001">
        <ele>156.5</ele>
        <time>2022-03-31T15:18:45+02:00</time>
      </trkpt>
      <trkpt lat="44.14767" lon="0.85986">
        <ele>156.3</ele>
        <time>2022-03-31T15:18:59+02:00</time>
      </trkpt>
      <trkpt lat="44.14773" lon="0.85968">
        <ele>156.4</ele>
        <time>2022-03-31T15:19:11+02:00</time>
      </trkpt>
      <trkpt lat="44.14785" lon="0.85957">
        <ele>155.9</ele>
        <time>2022-03-31T15:19:25+02:00</time>
      </trkpt>
      <trkpt lat="44.14793" lon="0.85941">
        <ele>155.8</ele>
        <time>2022-03-31T15:19:43+02:00</time>
      </trkpt>
      <trkpt lat="44.148" lon="0.85921">
        <ele>155.9</ele>
        <time>2022-03-31T15:19:57+02:00</time>
      </trkpt>
      <trkpt lat="44.14802" lon="0.85902">
        <ele>156.2</ele>
        <time>2022-03-31T15:20:10+02:00</time>
      </trkpt>
      <trkpt lat="44.14799" lon="0.85883">
        <ele>157</ele>
        <time>2022-03-31T15:20:24+02:00</time>
      </trkpt>
      <trkpt lat="44.14793" lon="0.85863">
        <ele>158</ele>
        <time>2022-03-31T15:20:37+02:00</time>
      </trkpt>
      <trkpt lat="44.14796" lon="0.85844">
        <ele>158.3</ele>
        <time>2022-03-31T15:20:55+02:00</time>
      </trkpt>
      <trkpt lat="44.1479" lon="0.85822">
        <ele>159.7</ele>
        <time>2022-03-31T15:21:12+02:00</time>
      </trkpt>
      <trkpt lat="44.14797" lon="0.85805">
        <ele>159.8</ele>
        <time>2022-03-31T15:21:24+02:00</time>
      </trkpt>
      <trkpt lat="44.14803" lon="0.85788">
        <ele>160.1</ele>
        <time>2022-03-31T15:21:39+02:00</time>
      </trkpt>
      <trkpt lat="44.14813" lon="0.8577">
        <ele>160</ele>
        <time>2022-03-31T15:21:53+02:00</time>
      </trkpt>
      <trkpt lat="44.14821" lon="0.85752">
        <ele>160.1</ele>
        <time>2022-03-31T15:22:08+02:00</time>
      </trkpt>
      <trkpt lat="44.14828" lon="0.85733">
        <ele>161.3</ele>
        <time>2022-03-31T15:22:22+02:00</time>
      </trkpt>
      <trkpt lat="44.1484" lon="0.85723">
        <ele>160</ele>
        <time>2022-03-31T15:22:32+02:00</time>
      </trkpt>
      <trkpt lat="44.14847" lon="0.85705">
        <ele>159.8</ele>
        <time>2022-03-31T15:22:44+02:00</time>
      </trkpt>
      <trkpt lat="44.14855" lon="0.85687">
        <ele>159.7</ele>
        <time>2022-03-31T15:23:00+02:00</time>
      </trkpt>
      <trkpt lat="44.14867" lon="0.85671">
        <ele>158.2</ele>
        <time>2022-03-31T15:23:12+02:00</time>
      </trkpt>
      <trkpt lat="44.14877" lon="0.85658">
        <ele>156.7</ele>
        <time>2022-03-31T15:23:22+02:00</time>
      </trkpt>
      <trkpt lat="44.14887" lon="0.85642">
        <ele>155.9</ele>
        <time>2022-03-31T15:23:33+02:00</time>
      </trkpt>
      <trkpt lat="44.14894" lon="0.85625">
        <ele>156.3</ele>
        <time>2022-03-31T15:23:58+02:00</time>
      </trkpt>
      <trkpt lat="44.14898" lon="0.85606">
        <ele>157.7</ele>
        <time>2022-03-31T15:24:12+02:00</time>
      </trkpt>
      <trkpt lat="44.14908" lon="0.8559">
        <ele>158.4</ele>
        <time>2022-03-31T15:24:22+02:00</time>
      </trkpt>
      <trkpt lat="44.14914" lon="0.85571">
        <ele>158.6</ele>
        <time>2022-03-31T15:24:35+02:00</time>
      </trkpt>
      <trkpt lat="44.14922" lon="0.85552">
        <ele>157.6</ele>
        <time>2022-03-31T15:24:44+02:00</time>
      </trkpt>
      <trkpt lat="44.14924" lon="0.85531">
        <ele>157.8</ele>
        <time>2022-03-31T15:24:54+02:00</time>
      </trkpt>
      <trkpt lat="44.14926" lon="0.8551">
        <ele>158.1</ele>
        <time>2022-03-31T15:25:06+02:00</time>
      </trkpt>
      <trkpt lat="44.14928" lon="0.85492">
        <ele>158.3</ele>
        <time>2022-03-31T15:25:22+02:00</time>
      </trkpt>
      <trkpt lat="44.14927" lon="0.8547">
        <ele>158.8</ele>
        <time>2022-03-31T15:25:37+02:00</time>
      </trkpt>
      <trkpt lat="44.14927" lon="0.85448">
        <ele>159.3</ele>
        <time>2022-03-31T15:25:58+02:00</time>
      </trkpt>
      <trkpt lat="44.14929" lon="0.85425">
        <ele>159.5</ele>
        <time>2022-03-31T15:26:12+02:00</time>
      </trkpt>
      <trkpt lat="44.14936" lon="0.85408">
        <ele>158.8</ele>
        <time>2022-03-31T15:26:24+02:00</time>
      </trkpt>
      <trkpt lat="44.14933" lon="0.85388">
        <ele>158.5</ele>
        <time>2022-03-31T15:26:40+02:00</time>
      </trkpt>
      <trkpt lat="44.14939" lon="0.8537">
        <ele>157.6</ele>
        <time>2022-03-31T15:27:13+02:00</time>
      </trkpt>
      <trkpt lat="44.14947" lon="0.85354">
        <ele>156.8</ele>
        <time>2022-03-31T15:27:52+02:00</time>
      </trkpt>
      <trkpt lat="44.14939" lon="0.85338">
        <ele>157</ele>
        <time>2022-03-31T15:29:54+02:00</time>
      </trkpt>
      <trkpt lat="44.14952" lon="0.85345">
        <ele>156.4</ele>
        <time>2022-03-31T15:30:33+02:00</time>
      </trkpt>
      <trkpt lat="44.14966" lon="0.85347">
        <ele>155.6</ele>
        <time>2022-03-31T15:35:16+02:00</time>
      </trkpt>
      <trkpt lat="44.14982" lon="0.85351">
        <ele>154.7</ele>
        <time>2022-03-31T15:35:34+02:00</time>
      </trkpt>
      <trkpt lat="44.14995" lon="0.85356">
        <ele>153.8</ele>
        <time>2022-03-31T15:35:50+02:00</time>
      </trkpt>
      <trkpt lat="44.1501" lon="0.85358">
        <ele>152.1</ele>
        <time>2022-03-31T15:36:05+02:00</time>
      </trkpt>
      <trkpt lat="44.15026" lon="0.85354">
        <ele>150.4</ele>
        <time>2022-03-31T15:36:17+02:00</time>
      </trkpt>
      <trkpt lat="44.15043" lon="0.85361">
        <ele>147.8</ele>
        <time>2022-03-31T15:36:29+02:00</time>
      </trkpt>
      <trkpt lat="44.15057" lon="0.85369">
        <ele>145.2</ele>
        <time>2022-03-31T15:36:42+02:00</time>
      </trkpt>
      <trkpt lat="44.15071" lon="0.8537">
        <ele>143.1</ele>
        <time>2022-03-31T15:36:58+02:00</time>
      </trkpt>
      <trkpt lat="44.15086" lon="0.8537">
        <ele>141</ele>
        <time>2022-03-31T15:37:09+02:00</time>
      </trkpt>
      <trkpt lat="44.15103" lon="0.85372">
        <ele>139.4</ele>
        <time>2022-03-31T15:37:24+02:00</time>
      </trkpt>
      <trkpt lat="44.15118" lon="0.85374">
        <ele>137.9</ele>
        <time>2022-03-31T15:37:40+02:00</time>
      </trkpt>
      <trkpt lat="44.15131" lon="0.85373">
        <ele>136.9</ele>
        <time>2022-03-31T15:37:55+02:00</time>
      </trkpt>
      <trkpt lat="44.15147" lon="0.85373">
        <ele>135.7</ele>
        <time>2022-03-31T15:38:08+02:00</time>
      </trkpt>
      <trkpt lat="44.15165" lon="0.85371">
        <ele>134.6</ele>
        <time>2022-03-31T15:38:25+02:00</time>
      </trkpt>
      <trkpt lat="44.15175" lon="0.85358">
        <ele>134.9</ele>
        <time>2022-03-31T15:38:41+02:00</time>
      </trkpt>
      <trkpt lat="44.15188" lon="0.85349">
        <ele>134.4</ele>
        <time>2022-03-31T15:38:51+02:00</time>
      </trkpt>
      <trkpt lat="44.15201" lon="0.85343">
        <ele>133.6</ele>
        <time>2022-03-31T15:39:04+02:00</time>
      </trkpt>
      <trkpt lat="44.15216" lon="0.8534">
        <ele>132.3</ele>
        <time>2022-03-31T15:39:16+02:00</time>
      </trkpt>
      <trkpt lat="44.15229" lon="0.85331">
        <ele>131.1</ele>
        <time>2022-03-31T15:39:28+02:00</time>
      </trkpt>
      <trkpt lat="44.15242" lon="0.85325">
        <ele>129</ele>
        <time>2022-03-31T15:39:39+02:00</time>
      </trkpt>
      <trkpt lat="44.15256" lon="0.85328">
        <ele>128.1</ele>
        <time>2022-03-31T15:39:56+02:00</time>
      </trkpt>
      <trkpt lat="44.1527" lon="0.85321">
        <ele>126.9</ele>
        <time>2022-03-31T15:40:12+02:00</time>
      </trkpt>
      <trkpt lat="44.15283" lon="0.85328">
        <ele>127</ele>
        <time>2022-03-31T15:40:51+02:00</time>
      </trkpt>
      <trkpt lat="44.15298" lon="0.85329">
        <ele>126.3</ele>
        <time>2022-03-31T15:41:15+02:00</time>
      </trkpt>
      <trkpt lat="44.15305" lon="0.85311">
        <ele>124.5</ele>
        <time>2022-03-31T15:42:30+02:00</time>
      </trkpt>
      <trkpt lat="44.1532" lon="0.85301">
        <ele>123.1</ele>
        <time>2022-03-31T15:42:51+02:00</time>
      </trkpt>
      <trkpt lat="44.15333" lon="0.85299">
        <ele>122.5</ele>
        <time>2022-03-31T15:43:01+02:00</time>
      </trkpt>
      <trkpt lat="44.15347" lon="0.85293">
        <ele>120.3</ele>
        <time>2022-03-31T15:43:19+02:00</time>
      </trkpt>
      <trkpt lat="44.15363" lon="0.85291">
        <ele>118</ele>
        <time>2022-03-31T15:43:29+02:00</time>
      </trkpt>
      <trkpt lat="44.15377" lon="0.85288">
        <ele>115.9</ele>
        <time>2022-03-31T15:43:38+02:00</time>
      </trkpt>
      <trkpt lat="44.15392" lon="0.85288">
        <ele>113.9</ele>
        <time>2022-03-31T15:43:49+02:00</time>
      </trkpt>
      <trkpt lat="44.15409" lon="0.85287">
        <ele>111.6</ele>
        <time>2022-03-31T15:44:05+02:00</time>
      </trkpt>
      <trkpt lat="44.15424" lon="0.85294">
        <ele>111.1</ele>
        <time>2022-03-31T15:44:29+02:00</time>
      </trkpt>
      <trkpt lat="44.15437" lon="0.85297">
        <ele>111.4</ele>
        <time>2022-03-31T15:44:45+02:00</time>
      </trkpt>
      <trkpt lat="44.15447" lon="0.85312">
        <ele>112.9</ele>
        <time>2022-03-31T15:45:11+02:00</time>
      </trkpt>
      <trkpt lat="44.15453" lon="0.85331">
        <ele>114.8</ele>
        <time>2022-03-31T15:45:41+02:00</time>
      </trkpt>
      <trkpt lat="44.15456" lon="0.8535">
        <ele>115.6</ele>
        <time>2022-03-31T15:48:43+02:00</time>
      </trkpt>
      <trkpt lat="44.15471" lon="0.85352">
        <ele>115.7</ele>
        <time>2022-03-31T15:49:02+02:00</time>
      </trkpt>
      <trkpt lat="44.15483" lon="0.85343">
        <ele>115.4</ele>
        <time>2022-03-31T15:49:14+02:00</time>
      </trkpt>
      <trkpt lat="44.15497" lon="0.85337">
        <ele>115.1</ele>
        <time>2022-03-31T15:49:31+02:00</time>
      </trkpt>
      <trkpt lat="44.1551" lon="0.8533">
        <ele>114.7</ele>
        <time>2022-03-31T15:49:45+02:00</time>
      </trkpt>
      <trkpt lat="44.15525" lon="0.85329">
        <ele>114.9</ele>
        <time>2022-03-31T15:49:57+02:00</time>
      </trkpt>
      <trkpt lat="44.1554" lon="0.85334">
        <ele>115.5</ele>
        <time>2022-03-31T15:50:16+02:00</time>
      </trkpt>
      <trkpt lat="44.15555" lon="0.85335">
        <ele>115.6</ele>
        <time>2022-03-31T15:50:32+02:00</time>
      </trkpt>
      <trkpt lat="44.15567" lon="0.85344">
        <ele>114.9</ele>
        <time>2022-03-31T15:50:45+02:00</time>
      </trkpt>
      <trkpt lat="44.1558" lon="0.85352">
        <ele>113.9</ele>
        <time>2022-03-31T15:50:56+02:00</time>
      </trkpt>
      <trkpt lat="44.15594" lon="0.85344">
        <ele>112.6</ele>
        <time>2022-03-31T15:51:10+02:00</time>
      </trkpt>
      <trkpt lat="44.15608" lon="0.85349">
        <ele>109.2</ele>
        <time>2022-03-31T15:51:25+02:00</time>
      </trkpt>
      <trkpt lat="44.15622" lon="0.85359">
        <ele>105.3</ele>
        <time>2022-03-31T15:51:36+02:00</time>
      </trkpt>
      <trkpt lat="44.15631" lon="0.8538">
        <ele>101.4</ele>
        <time>2022-03-31T15:51:47+02:00</time>
      </trkpt>
      <trkpt lat="44.15639" lon="0.85396">
        <ele>98</ele>
        <time>2022-03-31T15:51:56+02:00</time>
      </trkpt>
      <trkpt lat="44.15645" lon="0.85419">
        <ele>94.8</ele>
        <time>2022-03-31T15:52:11+02:00</time>
      </trkpt>
      <trkpt lat="44.15651" lon="0.85436">
        <ele>92.2</ele>
        <time>2022-03-31T15:52:22+02:00</time>
      </trkpt>
      <trkpt lat="44.1566" lon="0.8545">
        <ele>89.8</ele>
        <time>2022-03-31T15:53:17+02:00</time>
      </trkpt>
      <trkpt lat="44.15674" lon="0.85439">
        <ele>89</ele>
        <time>2022-03-31T15:54:32+02:00</time>
      </trkpt>
      <trkpt lat="44.15688" lon="0.85433">
        <ele>87.9</ele>
        <time>2022-03-31T15:54:41+02:00</time>
      </trkpt>
      <trkpt lat="44.15695" lon="0.85451">
        <ele>86.7</ele>
        <time>2022-03-31T15:55:14+02:00</time>
      </trkpt>
      <trkpt lat="44.15703" lon="0.85467">
        <ele>85.7</ele>
        <time>2022-03-31T15:55:27+02:00</time>
      </trkpt>
      <trkpt lat="44.15712" lon="0.85482">
        <ele>85</ele>
        <time>2022-03-31T15:55:41+02:00</time>
      </trkpt>
      <trkpt lat="44.15717" lon="0.85502">
        <ele>84.9</ele>
        <time>2022-03-31T15:55:53+02:00</time>
      </trkpt>
      <trkpt lat="44.1572" lon="0.85524">
        <ele>86</ele>
        <time>2022-03-31T15:56:09+02:00</time>
      </trkpt>
      <trkpt lat="44.15724" lon="0.85546">
        <ele>86.9</ele>
        <time>2022-03-31T15:56:22+02:00</time>
      </trkpt>
      <trkpt lat="44.15728" lon="0.85566">
        <ele>87.5</ele>
        <time>2022-03-31T15:56:34+02:00</time>
      </trkpt>
      <trkpt lat="44.15728" lon="0.85585">
        <ele>88.5</ele>
        <time>2022-03-31T15:56:46+02:00</time>
      </trkpt>
      <trkpt lat="44.15731" lon="0.85605">
        <ele>88.8</ele>
        <time>2022-03-31T15:57:01+02:00</time>
      </trkpt>
      <trkpt lat="44.15736" lon="0.85624">
        <ele>88.7</ele>
        <time>2022-03-31T15:57:15+02:00</time>
      </trkpt>
      <trkpt lat="44.15743" lon="0.85641">
        <ele>87.9</ele>
        <time>2022-03-31T15:57:27+02:00</time>
      </trkpt>
      <trkpt lat="44.15746" lon="0.85662">
        <ele>87.7</ele>
        <time>2022-03-31T15:57:42+02:00</time>
      </trkpt>
      <trkpt lat="44.15747" lon="0.85682">
        <ele>87.4</ele>
        <time>2022-03-31T15:57:55+02:00</time>
      </trkpt>
      <trkpt lat="44.15757" lon="0.857">
        <ele>86.3</ele>
        <time>2022-03-31T15:58:08+02:00</time>
      </trkpt>
      <trkpt lat="44.15763" lon="0.8572">
        <ele>85.8</ele>
        <time>2022-03-31T15:58:19+02:00</time>
      </trkpt>
      <trkpt lat="44.15767" lon="0.85739">
        <ele>85.4</ele>
        <time>2022-03-31T15:58:32+02:00</time>
      </trkpt>
      <trkpt lat="44.15771" lon="0.8576">
        <ele>85.2</ele>
        <time>2022-03-31T15:58:45+02:00</time>
      </trkpt>
      <trkpt lat="44.15774" lon="0.8578">
        <ele>85.1</ele>
        <time>2022-03-31T15:58:57+02:00</time>
      </trkpt>
      <trkpt lat="44.15778" lon="0.85801">
        <ele>85</ele>
        <time>2022-03-31T15:59:15+02:00</time>
      </trkpt>
      <trkpt lat="44.15786" lon="0.85819">
        <ele>84.7</ele>
        <time>2022-03-31T15:59:26+02:00</time>
      </trkpt>
      <trkpt lat="44.15792" lon="0.85838">
        <ele>84.6</ele>
        <time>2022-03-31T15:59:36+02:00</time>
      </trkpt>
      <trkpt lat="44.15802" lon="0.85853">
        <ele>84.7</ele>
        <time>2022-03-31T15:59:45+02:00</time>
      </trkpt>
      <trkpt lat="44.15811" lon="0.8587">
        <ele>85</ele>
        <time>2022-03-31T15:59:57+02:00</time>
      </trkpt>
      <trkpt lat="44.15817" lon="0.85887">
        <ele>85.4</ele>
        <time>2022-03-31T16:00:09+02:00</time>
      </trkpt>
      <trkpt lat="44.1582" lon="0.85906">
        <ele>85.9</ele>
        <time>2022-03-31T16:00:23+02:00</time>
      </trkpt>
      <trkpt lat="44.15829" lon="0.85921">
        <ele>86.4</ele>
        <time>2022-03-31T16:00:35+02:00</time>
      </trkpt>
      <trkpt lat="44.15834" lon="0.8594">
        <ele>87.6</ele>
        <time>2022-03-31T16:00:47+02:00</time>
      </trkpt>
      <trkpt lat="44.15834" lon="0.85961">
        <ele>89.1</ele>
        <time>2022-03-31T16:01:00+02:00</time>
      </trkpt>
      <trkpt lat="44.15832" lon="0.85982">
        <ele>90.8</ele>
        <time>2022-03-31T16:01:13+02:00</time>
      </trkpt>
      <trkpt lat="44.15839" lon="0.85998">
        <ele>91.5</ele>
        <time>2022-03-31T16:01:25+02:00</time>
      </trkpt>
      <trkpt lat="44.1584" lon="0.86017">
        <ele>93.8</ele>
        <time>2022-03-31T16:01:35+02:00</time>
      </trkpt>
      <trkpt lat="44.15844" lon="0.86036">
        <ele>95.8</ele>
        <time>2022-03-31T16:01:45+02:00</time>
      </trkpt>
      <trkpt lat="44.15858" lon="0.8605">
        <ele>95.9</ele>
        <time>2022-03-31T16:02:01+02:00</time>
      </trkpt>
      <trkpt lat="44.15868" lon="0.86064">
        <ele>95.8</ele>
        <time>2022-03-31T16:02:11+02:00</time>
      </trkpt>
      <trkpt lat="44.15879" lon="0.86077">
        <ele>95.2</ele>
        <time>2022-03-31T16:02:23+02:00</time>
      </trkpt>
      <trkpt lat="44.15891" lon="0.8609">
        <ele>94.3</ele>
        <time>2022-03-31T16:02:36+02:00</time>
      </trkpt>
      <trkpt lat="44.159" lon="0.86109">
        <ele>95</ele>
        <time>2022-03-31T16:02:51+02:00</time>
      </trkpt>
      <trkpt lat="44.15912" lon="0.86123">
        <ele>94.5</ele>
        <time>2022-03-31T16:03:07+02:00</time>
      </trkpt>
      <trkpt lat="44.15921" lon="0.86139">
        <ele>95.2</ele>
        <time>2022-03-31T16:03:20+02:00</time>
      </trkpt>
      <trkpt lat="44.1593" lon="0.86155">
        <ele>95.8</ele>
        <time>2022-03-31T16:03:31+02:00</time>
      </trkpt>
      <trkpt lat="44.15938" lon="0.86174">
        <ele>96.3</ele>
        <time>2022-03-31T16:03:43+02:00</time>
      </trkpt>
      <trkpt lat="44.15946" lon="0.86191">
        <ele>96.1</ele>
        <time>2022-03-31T16:04:05+02:00</time>
      </trkpt>
      <trkpt lat="44.15957" lon="0.86204">
        <ele>95</ele>
        <time>2022-03-31T16:05:12+02:00</time>
      </trkpt>
      <trkpt lat="44.15972" lon="0.86187">
        <ele>92</ele>
        <time>2022-03-31T16:08:02+02:00</time>
      </trkpt>
      <trkpt lat="44.15983" lon="0.86176">
        <ele>89.8</ele>
        <time>2022-03-31T16:08:14+02:00</time>
      </trkpt>
      <trkpt lat="44.15995" lon="0.86162">
        <ele>87.6</ele>
        <time>2022-03-31T16:08:28+02:00</time>
      </trkpt>
      <trkpt lat="44.16006" lon="0.86149">
        <ele>86.8</ele>
        <time>2022-03-31T16:08:39+02:00</time>
      </trkpt>
      <trkpt lat="44.16018" lon="0.86139">
        <ele>87</ele>
        <time>2022-03-31T16:08:51+02:00</time>
      </trkpt>
      <trkpt lat="44.16024" lon="0.86157">
        <ele>87.5</ele>
        <time>2022-03-31T16:09:12+02:00</time>
      </trkpt>
      <trkpt lat="44.16037" lon="0.8617">
        <ele>88</ele>
        <time>2022-03-31T16:09:23+02:00</time>
      </trkpt>
      <trkpt lat="44.16048" lon="0.86183">
        <ele>88.4</ele>
        <time>2022-03-31T16:09:33+02:00</time>
      </trkpt>
      <trkpt lat="44.1606" lon="0.86194">
        <ele>88.7</ele>
        <time>2022-03-31T16:09:42+02:00</time>
      </trkpt>
      <trkpt lat="44.16068" lon="0.86213">
        <ele>88.9</ele>
        <time>2022-03-31T16:09:54+02:00</time>
      </trkpt>
      <trkpt lat="44.16076" lon="0.86232">
        <ele>89</ele>
        <time>2022-03-31T16:10:06+02:00</time>
      </trkpt>
      <trkpt lat="44.16089" lon="0.86243">
        <ele>89.1</ele>
        <time>2022-03-31T16:10:18+02:00</time>
      </trkpt>
      <trkpt lat="44.16101" lon="0.86255">
        <ele>89.5</ele>
        <time>2022-03-31T16:10:29+02:00</time>
      </trkpt>
      <trkpt lat="44.16112" lon="0.86271">
        <ele>90</ele>
        <time>2022-03-31T16:10:43+02:00</time>
      </trkpt>
      <trkpt lat="44.16124" lon="0.86284">
        <ele>90.4</ele>
        <time>2022-03-31T16:10:56+02:00</time>
      </trkpt>
      <trkpt lat="44.16132" lon="0.86302">
        <ele>90.7</ele>
        <time>2022-03-31T16:11:08+02:00</time>
      </trkpt>
      <trkpt lat="44.16142" lon="0.86317">
        <ele>90.9</ele>
        <time>2022-03-31T16:11:20+02:00</time>
      </trkpt>
      <trkpt lat="44.16155" lon="0.86327">
        <ele>91</ele>
        <time>2022-03-31T16:11:29+02:00</time>
      </trkpt>
      <trkpt lat="44.16169" lon="0.86337">
        <ele>91.3</ele>
        <time>2022-03-31T16:11:41+02:00</time>
      </trkpt>
      <trkpt lat="44.1618" lon="0.86351">
        <ele>92.2</ele>
        <time>2022-03-31T16:11:53+02:00</time>
      </trkpt>
      <trkpt lat="44.16188" lon="0.86368">
        <ele>92.8</ele>
        <time>2022-03-31T16:12:04+02:00</time>
      </trkpt>
      <trkpt lat="44.16201" lon="0.86378">
        <ele>93</ele>
        <time>2022-03-31T16:12:15+02:00</time>
      </trkpt>
      <trkpt lat="44.16212" lon="0.8639">
        <ele>92.9</ele>
        <time>2022-03-31T16:12:27+02:00</time>
      </trkpt>
      <trkpt lat="44.16222" lon="0.86407">
        <ele>92.5</ele>
        <time>2022-03-31T16:12:41+02:00</time>
      </trkpt>
      <trkpt lat="44.16227" lon="0.86427">
        <ele>92.7</ele>
        <time>2022-03-31T16:12:54+02:00</time>
      </trkpt>
      <trkpt lat="44.16239" lon="0.86439">
        <ele>92.7</ele>
        <time>2022-03-31T16:13:06+02:00</time>
      </trkpt>
      <trkpt lat="44.16251" lon="0.86456">
        <ele>92.9</ele>
        <time>2022-03-31T16:13:17+02:00</time>
      </trkpt>
      <trkpt lat="44.16261" lon="0.86472">
        <ele>94.1</ele>
        <time>2022-03-31T16:13:26+02:00</time>
      </trkpt>
      <trkpt lat="44.16276" lon="0.86482">
        <ele>95</ele>
        <time>2022-03-31T16:13:37+02:00</time>
      </trkpt>
      <trkpt lat="44.16288" lon="0.86491">
        <ele>95.4</ele>
        <time>2022-03-31T16:13:48+02:00</time>
      </trkpt>
      <trkpt lat="44.16302" lon="0.86503">
        <ele>95.8</ele>
        <time>2022-03-31T16:14:03+02:00</time>
      </trkpt>
      <trkpt lat="44.16303" lon="0.86525">
        <ele>97</ele>
        <time>2022-03-31T16:14:14+02:00</time>
      </trkpt>
      <trkpt lat="44.16317" lon="0.86537">
        <ele>97.3</ele>
        <time>2022-03-31T16:14:23+02:00</time>
      </trkpt>
      <trkpt lat="44.16327" lon="0.86549">
        <ele>97.4</ele>
        <time>2022-03-31T16:14:32+02:00</time>
      </trkpt>
      <trkpt lat="44.16337" lon="0.86561">
        <ele>97.5</ele>
        <time>2022-03-31T16:14:46+02:00</time>
      </trkpt>
      <trkpt lat="44.16344" lon="0.86582">
        <ele>97.9</ele>
        <time>2022-03-31T16:14:58+02:00</time>
      </trkpt>
      <trkpt lat="44.16339" lon="0.86602">
        <ele>99</ele>
        <time>2022-03-31T16:15:07+02:00</time>
      </trkpt>
      <trkpt lat="44.16333" lon="0.8662">
        <ele>100.2</ele>
        <time>2022-03-31T16:15:19+02:00</time>
      </trkpt>
      <trkpt lat="44.16326" lon="0.86637">
        <ele>101.9</ele>
        <time>2022-03-31T16:15:29+02:00</time>
      </trkpt>
      <trkpt lat="44.16317" lon="0.8665">
        <ele>103.9</ele>
        <time>2022-03-31T16:15:43+02:00</time>
      </trkpt>
      <trkpt lat="44.16307" lon="0.86668">
        <ele>106.2</ele>
        <time>2022-03-31T16:16:04+02:00</time>
      </trkpt>
      <trkpt lat="44.16292" lon="0.86677">
        <ele>107.7</ele>
        <time>2022-03-31T16:18:46+02:00</time>
      </trkpt>
      <trkpt lat="44.16276" lon="0.86676">
        <ele>109.5</ele>
        <time>2022-03-31T16:18:58+02:00</time>
      </trkpt>
      <trkpt lat="44.16263" lon="0.86684">
        <ele>110.8</ele>
        <time>2022-03-31T16:19:14+02:00</time>
      </trkpt>
      <trkpt lat="44.16251" lon="0.86696">
        <ele>111.8</ele>
        <time>2022-03-31T16:19:26+02:00</time>
      </trkpt>
      <trkpt lat="44.16238" lon="0.867">
        <ele>112.3</ele>
        <time>2022-03-31T16:19:37+02:00</time>
      </trkpt>
      <trkpt lat="44.16225" lon="0.86711">
        <ele>112.7</ele>
        <time>2022-03-31T16:19:52+02:00</time>
      </trkpt>
      <trkpt lat="44.16211" lon="0.86716">
        <ele>113.4</ele>
        <time>2022-03-31T16:20:06+02:00</time>
      </trkpt>
      <trkpt lat="44.16199" lon="0.86727">
        <ele>114.4</ele>
        <time>2022-03-31T16:20:20+02:00</time>
      </trkpt>
      <trkpt lat="44.16186" lon="0.86738">
        <ele>115.7</ele>
        <time>2022-03-31T16:20:32+02:00</time>
      </trkpt>
      <trkpt lat="44.16176" lon="0.86751">
        <ele>117.1</ele>
        <time>2022-03-31T16:20:44+02:00</time>
      </trkpt>
      <trkpt lat="44.16163" lon="0.8676">
        <ele>118.8</ele>
        <time>2022-03-31T16:21:00+02:00</time>
      </trkpt>
      <trkpt lat="44.16148" lon="0.86766">
        <ele>121.5</ele>
        <time>2022-03-31T16:21:15+02:00</time>
      </trkpt>
      <trkpt lat="44.16134" lon="0.86773">
        <ele>123.9</ele>
        <time>2022-03-31T16:21:35+02:00</time>
      </trkpt>
      <trkpt lat="44.1612" lon="0.86777">
        <ele>126.3</ele>
        <time>2022-03-31T16:21:51+02:00</time>
      </trkpt>
      <trkpt lat="44.16108" lon="0.86787">
        <ele>128.5</ele>
        <time>2022-03-31T16:22:00+02:00</time>
      </trkpt>
      <trkpt lat="44.16095" lon="0.86793">
        <ele>130.5</ele>
        <time>2022-03-31T16:22:09+02:00</time>
      </trkpt>
      <trkpt lat="44.16081" lon="0.86801">
        <ele>133</ele>
        <time>2022-03-31T16:22:34+02:00</time>
      </trkpt>
      <trkpt lat="44.1607" lon="0.86813">
        <ele>135.8</ele>
        <time>2022-03-31T16:23:06+02:00</time>
      </trkpt>
      <trkpt lat="44.16058" lon="0.86821">
        <ele>139</ele>
        <time>2022-03-31T16:23:31+02:00</time>
      </trkpt>
      <trkpt lat="44.16042" lon="0.86821">
        <ele>143.2</ele>
        <time>2022-03-31T16:23:49+02:00</time>
      </trkpt>
      <trkpt lat="44.16028" lon="0.86817">
        <ele>147.2</ele>
        <time>2022-03-31T16:24:06+02:00</time>
      </trkpt>
      <trkpt lat="44.16012" lon="0.86812">
        <ele>151.3</ele>
        <time>2022-03-31T16:24:25+02:00</time>
      </trkpt>
      <trkpt lat="44.15999" lon="0.86802">
        <ele>154.3</ele>
        <time>2022-03-31T16:24:47+02:00</time>
      </trkpt>
      <trkpt lat="44.15986" lon="0.86806">
        <ele>154.5</ele>
        <time>2022-03-31T16:25:04+02:00</time>
      </trkpt>
      <trkpt lat="44.15972" lon="0.86812">
        <ele>154.9</ele>
        <time>2022-03-31T16:25:15+02:00</time>
      </trkpt>
      <trkpt lat="44.15961" lon="0.86823">
        <ele>155.7</ele>
        <time>2022-03-31T16:25:27+02:00</time>
      </trkpt>
      <trkpt lat="44.15953" lon="0.86839">
        <ele>156.7</ele>
        <time>2022-03-31T16:26:34+02:00</time>
      </trkpt>
      <trkpt lat="44.1594" lon="0.86831">
        <ele>156.9</ele>
        <time>2022-03-31T16:27:40+02:00</time>
      </trkpt>
      <trkpt lat="44.15942" lon="0.86811">
        <ele>155.3</ele>
        <time>2022-03-31T16:27:53+02:00</time>
      </trkpt>
      <trkpt lat="44.15946" lon="0.86791">
        <ele>153.6</ele>
        <time>2022-03-31T16:28:05+02:00</time>
      </trkpt>
      <trkpt lat="44.15947" lon="0.86772">
        <ele>152.2</ele>
        <time>2022-03-31T16:28:16+02:00</time>
      </trkpt>
      <trkpt lat="44.15942" lon="0.86755">
        <ele>150.6</ele>
        <time>2022-03-31T16:28:31+02:00</time>
      </trkpt>
      <trkpt lat="44.15936" lon="0.86735">
        <ele>147.5</ele>
        <time>2022-03-31T16:28:46+02:00</time>
      </trkpt>
      <trkpt lat="44.15925" lon="0.86723">
        <ele>144.8</ele>
        <time>2022-03-31T16:28:58+02:00</time>
      </trkpt>
      <trkpt lat="44.15914" lon="0.86709">
        <ele>141.1</ele>
        <time>2022-03-31T16:29:14+02:00</time>
      </trkpt>
      <trkpt lat="44.159" lon="0.86699">
        <ele>137</ele>
        <time>2022-03-31T16:29:33+02:00</time>
      </trkpt>
      <trkpt lat="44.15885" lon="0.86703">
        <ele>135.2</ele>
        <time>2022-03-31T16:29:49+02:00</time>
      </trkpt>
      <trkpt lat="44.15872" lon="0.86707">
        <ele>133.4</ele>
        <time>2022-03-31T16:30:05+02:00</time>
      </trkpt>
      <trkpt lat="44.15859" lon="0.86715">
        <ele>132.4</ele>
        <time>2022-03-31T16:30:24+02:00</time>
      </trkpt>
      <trkpt lat="44.15849" lon="0.86735">
        <ele>133.2</ele>
        <time>2022-03-31T16:30:42+02:00</time>
      </trkpt>
      <trkpt lat="44.15839" lon="0.86749">
        <ele>133.1</ele>
        <time>2022-03-31T16:31:03+02:00</time>
      </trkpt>
      <trkpt lat="44.15833" lon="0.86769">
        <ele>136.1</ele>
        <time>2022-03-31T16:31:18+02:00</time>
      </trkpt>
      <trkpt lat="44.1582" lon="0.86781">
        <ele>140.1</ele>
        <time>2022-03-31T16:31:33+02:00</time>
      </trkpt>
      <trkpt lat="44.15811" lon="0.86796">
        <ele>143.7</ele>
        <time>2022-03-31T16:31:47+02:00</time>
      </trkpt>
      <trkpt lat="44.15801" lon="0.86815">
        <ele>147.5</ele>
        <time>2022-03-31T16:32:04+02:00</time>
      </trkpt>
      <trkpt lat="44.15793" lon="0.86831">
        <ele>150.1</ele>
        <time>2022-03-31T16:32:22+02:00</time>
      </trkpt>
      <trkpt lat="44.1578" lon="0.86846">
        <ele>151.9</ele>
        <time>2022-03-31T16:32:34+02:00</time>
      </trkpt>
      <trkpt lat="44.15767" lon="0.8685">
        <ele>152.4</ele>
        <time>2022-03-31T16:32:52+02:00</time>
      </trkpt>
      <trkpt lat="44.15753" lon="0.86856">
        <ele>152.9</ele>
        <time>2022-03-31T16:33:02+02:00</time>
      </trkpt>
      <trkpt lat="44.1574" lon="0.86856">
        <ele>152.2</ele>
        <time>2022-03-31T16:33:11+02:00</time>
      </trkpt>
      <trkpt lat="44.15723" lon="0.86857">
        <ele>151</ele>
        <time>2022-03-31T16:33:26+02:00</time>
      </trkpt>
      <trkpt lat="44.15715" lon="0.86876">
        <ele>151.6</ele>
        <time>2022-03-31T16:33:40+02:00</time>
      </trkpt>
      <trkpt lat="44.1571" lon="0.86895">
        <ele>152.4</ele>
        <time>2022-03-31T16:33:51+02:00</time>
      </trkpt>
      <trkpt lat="44.15706" lon="0.86913">
        <ele>153</ele>
        <time>2022-03-31T16:34:05+02:00</time>
      </trkpt>
      <trkpt lat="44.157" lon="0.8693">
        <ele>153.9</ele>
        <time>2022-03-31T16:34:17+02:00</time>
      </trkpt>
      <trkpt lat="44.15697" lon="0.8695">
        <ele>155.4</ele>
        <time>2022-03-31T16:34:35+02:00</time>
      </trkpt>
      <trkpt lat="44.15697" lon="0.86972">
        <ele>157.4</ele>
        <time>2022-03-31T16:34:48+02:00</time>
      </trkpt>
      <trkpt lat="44.15697" lon="0.86992">
        <ele>159.2</ele>
        <time>2022-03-31T16:35:05+02:00</time>
      </trkpt>
      <trkpt lat="44.15692" lon="0.8701">
        <ele>160.2</ele>
        <time>2022-03-31T16:35:20+02:00</time>
      </trkpt>
      <trkpt lat="44.1569" lon="0.87031">
        <ele>161.4</ele>
        <time>2022-03-31T16:35:38+02:00</time>
      </trkpt>
      <trkpt lat="44.15688" lon="0.87053">
        <ele>162.9</ele>
        <time>2022-03-31T16:35:54+02:00</time>
      </trkpt>
      <trkpt lat="44.15686" lon="0.87073">
        <ele>164.3</ele>
        <time>2022-03-31T16:36:09+02:00</time>
      </trkpt>
      <trkpt lat="44.15694" lon="0.87093">
        <ele>166.4</ele>
        <time>2022-03-31T16:36:42+02:00</time>
      </trkpt>
      <trkpt lat="44.15705" lon="0.87104">
        <ele>168.2</ele>
        <time>2022-03-31T16:42:10+02:00</time>
      </trkpt>
      <trkpt lat="44.15704" lon="0.87124">
        <ele>169</ele>
        <time>2022-03-31T16:42:24+02:00</time>
      </trkpt>
      <trkpt lat="44.15692" lon="0.8714">
        <ele>168.7</ele>
        <time>2022-03-31T16:42:42+02:00</time>
      </trkpt>
      <trkpt lat="44.15686" lon="0.87159">
        <ele>169.2</ele>
        <time>2022-03-31T16:43:19+02:00</time>
      </trkpt>
      <trkpt lat="44.1568" lon="0.87179">
        <ele>169.7</ele>
        <time>2022-03-31T16:43:38+02:00</time>
      </trkpt>
      <trkpt lat="44.15673" lon="0.87197">
        <ele>169.9</ele>
        <time>2022-03-31T16:44:08+02:00</time>
      </trkpt>
      <trkpt lat="44.15667" lon="0.87215">
        <ele>170.3</ele>
        <time>2022-03-31T16:44:22+02:00</time>
      </trkpt>
      <trkpt lat="44.15666" lon="0.87236">
        <ele>171.1</ele>
        <time>2022-03-31T16:44:50+02:00</time>
      </trkpt>
      <trkpt lat="44.15663" lon="0.87258">
        <ele>171.5</ele>
        <time>2022-03-31T16:45:06+02:00</time>
      </trkpt>
      <trkpt lat="44.15661" lon="0.87278">
        <ele>171.3</ele>
        <time>2022-03-31T16:45:19+02:00</time>
      </trkpt>
      <trkpt lat="44.15653" lon="0.87299">
        <ele>170.2</ele>
        <time>2022-03-31T16:45:33+02:00</time>
      </trkpt>
      <trkpt lat="44.15651" lon="0.87318">
        <ele>170.3</ele>
        <time>2022-03-31T16:45:45+02:00</time>
      </trkpt>
      <trkpt lat="44.15646" lon="0.87338">
        <ele>169.9</ele>
        <time>2022-03-31T16:45:57+02:00</time>
      </trkpt>
      <trkpt lat="44.15642" lon="0.87356">
        <ele>169.6</ele>
        <time>2022-03-31T16:46:08+02:00</time>
      </trkpt>
      <trkpt lat="44.15648" lon="0.87374">
        <ele>170.9</ele>
        <time>2022-03-31T16:46:18+02:00</time>
      </trkpt>
      <trkpt lat="44.15647" lon="0.87394">
        <ele>171.2</ele>
        <time>2022-03-31T16:46:25+02:00</time>
      </trkpt>
      <trkpt lat="44.15647" lon="0.87415">
        <ele>171.6</ele>
        <time>2022-03-31T16:46:37+02:00</time>
      </trkpt>
      <trkpt lat="44.15647" lon="0.87437">
        <ele>171.8</ele>
        <time>2022-03-31T16:46:54+02:00</time>
      </trkpt>
      <trkpt lat="44.15648" lon="0.87458">
        <ele>172</ele>
        <time>2022-03-31T16:47:10+02:00</time>
      </trkpt>
      <trkpt lat="44.15646" lon="0.8748">
        <ele>171.9</ele>
        <time>2022-03-31T16:47:22+02:00</time>
      </trkpt>
      <trkpt lat="44.15639" lon="0.87498">
        <ele>171</ele>
        <time>2022-03-31T16:47:34+02:00</time>
      </trkpt>
      <trkpt lat="44.15634" lon="0.87518">
        <ele>171.6</ele>
        <time>2022-03-31T16:47:50+02:00</time>
      </trkpt>
      <trkpt lat="44.15637" lon="0.87538">
        <ele>173.4</ele>
        <time>2022-03-31T16:48:04+02:00</time>
      </trkpt>
      <trkpt lat="44.15635" lon="0.87561">
        <ele>174.7</ele>
        <time>2022-03-31T16:48:16+02:00</time>
      </trkpt>
      <trkpt lat="44.15632" lon="0.87582">
        <ele>175.9</ele>
        <time>2022-03-31T16:48:27+02:00</time>
      </trkpt>
      <trkpt lat="44.15627" lon="0.876">
        <ele>176</ele>
        <time>2022-03-31T16:48:36+02:00</time>
      </trkpt>
      <trkpt lat="44.15624" lon="0.87622">
        <ele>176.7</ele>
        <time>2022-03-31T16:48:48+02:00</time>
      </trkpt>
      <trkpt lat="44.15631" lon="0.8764">
        <ele>178.8</ele>
        <time>2022-03-31T16:49:01+02:00</time>
      </trkpt>
      <trkpt lat="44.15629" lon="0.87662">
        <ele>179.7</ele>
        <time>2022-03-31T16:49:13+02:00</time>
      </trkpt>
      <trkpt lat="44.15629" lon="0.87683">
        <ele>180.1</ele>
        <time>2022-03-31T16:49:27+02:00</time>
      </trkpt>
      <trkpt lat="44.15624" lon="0.87703">
        <ele>179.3</ele>
        <time>2022-03-31T16:49:41+02:00</time>
      </trkpt>
      <trkpt lat="44.15621" lon="0.87722">
        <ele>178.8</ele>
        <time>2022-03-31T16:49:54+02:00</time>
      </trkpt>
      <trkpt lat="44.15621" lon="0.87744">
        <ele>179.1</ele>
        <time>2022-03-31T16:50:09+02:00</time>
      </trkpt>
      <trkpt lat="44.15623" lon="0.87762">
        <ele>179.1</ele>
        <time>2022-03-31T16:50:22+02:00</time>
      </trkpt>
      <trkpt lat="44.15623" lon="0.87783">
        <ele>178.3</ele>
        <time>2022-03-31T16:50:33+02:00</time>
      </trkpt>
      <trkpt lat="44.15622" lon="0.87803">
        <ele>177.3</ele>
        <time>2022-03-31T16:50:45+02:00</time>
      </trkpt>
      <trkpt lat="44.15625" lon="0.87823">
        <ele>176.9</ele>
        <time>2022-03-31T16:50:59+02:00</time>
      </trkpt>
      <trkpt lat="44.15627" lon="0.87843">
        <ele>175.8</ele>
        <time>2022-03-31T16:51:13+02:00</time>
      </trkpt>
      <trkpt lat="44.15632" lon="0.87863">
        <ele>174.3</ele>
        <time>2022-03-31T16:52:17+02:00</time>
      </trkpt>
      <trkpt lat="44.15638" lon="0.87882">
        <ele>172.7</ele>
        <time>2022-03-31T16:52:29+02:00</time>
      </trkpt>
      <trkpt lat="44.15647" lon="0.87899">
        <ele>171.4</ele>
        <time>2022-03-31T16:52:40+02:00</time>
      </trkpt>
      <trkpt lat="44.15652" lon="0.87918">
        <ele>169.5</ele>
        <time>2022-03-31T16:52:53+02:00</time>
      </trkpt>
      <trkpt lat="44.15658" lon="0.87937">
        <ele>168.3</ele>
        <time>2022-03-31T16:53:04+02:00</time>
      </trkpt>
      <trkpt lat="44.15664" lon="0.87955">
        <ele>167.1</ele>
        <time>2022-03-31T16:53:15+02:00</time>
      </trkpt>
      <trkpt lat="44.1567" lon="0.87973">
        <ele>166.4</ele>
        <time>2022-03-31T16:53:25+02:00</time>
      </trkpt>
      <trkpt lat="44.15673" lon="0.87995">
        <ele>165.3</ele>
        <time>2022-03-31T16:53:36+02:00</time>
      </trkpt>
      <trkpt lat="44.15677" lon="0.88016">
        <ele>166</ele>
        <time>2022-03-31T16:53:48+02:00</time>
      </trkpt>
      <trkpt lat="44.1568" lon="0.88034">
        <ele>166.9</ele>
        <time>2022-03-31T16:53:57+02:00</time>
      </trkpt>
      <trkpt lat="44.15684" lon="0.88052">
        <ele>168</ele>
        <time>2022-03-31T16:54:07+02:00</time>
      </trkpt>
      <trkpt lat="44.15687" lon="0.88071">
        <ele>168.9</ele>
        <time>2022-03-31T16:54:18+02:00</time>
      </trkpt>
      <trkpt lat="44.15691" lon="0.88093">
        <ele>169.7</ele>
        <time>2022-03-31T16:54:30+02:00</time>
      </trkpt>
      <trkpt lat="44.15695" lon="0.88111">
        <ele>170.3</ele>
        <time>2022-03-31T16:54:40+02:00</time>
      </trkpt>
      <trkpt lat="44.157" lon="0.88131">
        <ele>171</ele>
        <time>2022-03-31T16:54:51+02:00</time>
      </trkpt>
      <trkpt lat="44.15704" lon="0.88151">
        <ele>171.5</ele>
        <time>2022-03-31T16:55:02+02:00</time>
      </trkpt>
      <trkpt lat="44.15708" lon="0.88169">
        <ele>171.9</ele>
        <time>2022-03-31T16:55:14+02:00</time>
      </trkpt>
      <trkpt lat="44.15711" lon="0.88189">
        <ele>171.5</ele>
        <time>2022-03-31T16:55:24+02:00</time>
      </trkpt>
      <trkpt lat="44.15714" lon="0.88208">
        <ele>171</ele>
        <time>2022-03-31T16:55:36+02:00</time>
      </trkpt>
      <trkpt lat="44.15721" lon="0.88228">
        <ele>171.1</ele>
        <time>2022-03-31T16:55:48+02:00</time>
      </trkpt>
      <trkpt lat="44.15723" lon="0.88246">
        <ele>170.6</ele>
        <time>2022-03-31T16:55:57+02:00</time>
      </trkpt>
      <trkpt lat="44.15725" lon="0.88267">
        <ele>170.9</ele>
        <time>2022-03-31T16:56:11+02:00</time>
      </trkpt>
      <trkpt lat="44.15729" lon="0.88286">
        <ele>171.7</ele>
        <time>2022-03-31T16:56:22+02:00</time>
      </trkpt>
      <trkpt lat="44.15731" lon="0.88305">
        <ele>172.2</ele>
        <time>2022-03-31T16:56:53+02:00</time>
      </trkpt>
      <trkpt lat="44.15734" lon="0.88324">
        <ele>172.8</ele>
        <time>2022-03-31T16:57:23+02:00</time>
      </trkpt>
      <trkpt lat="44.15734" lon="0.88343">
        <ele>173.1</ele>
        <time>2022-03-31T16:57:35+02:00</time>
      </trkpt>
      <trkpt lat="44.15734" lon="0.88364">
        <ele>173.5</ele>
        <time>2022-03-31T16:57:49+02:00</time>
      </trkpt>
      <trkpt lat="44.15734" lon="0.88386">
        <ele>174</ele>
        <time>2022-03-31T16:58:02+02:00</time>
      </trkpt>
      <trkpt lat="44.15747" lon="0.88394">
        <ele>176</ele>
        <time>2022-03-31T16:58:37+02:00</time>
      </trkpt>
      <trkpt lat="44.15758" lon="0.88382">
        <ele>176.8</ele>
        <time>2022-03-31T16:58:54+02:00</time>
      </trkpt>
      <trkpt lat="44.15767" lon="0.88366">
        <ele>177.3</ele>
        <time>2022-03-31T16:59:08+02:00</time>
      </trkpt>
      <trkpt lat="44.15776" lon="0.8835">
        <ele>178</ele>
        <time>2022-03-31T16:59:33+02:00</time>
      </trkpt>
      <trkpt lat="44.15785" lon="0.88333">
        <ele>178.8</ele>
        <time>2022-03-31T16:59:45+02:00</time>
      </trkpt>
      <trkpt lat="44.15796" lon="0.88316">
        <ele>179.5</ele>
        <time>2022-03-31T16:59:55+02:00</time>
      </trkpt>
      <trkpt lat="44.15808" lon="0.883">
        <ele>180.3</ele>
        <time>2022-03-31T17:00:07+02:00</time>
      </trkpt>
      <trkpt lat="44.15819" lon="0.88285">
        <ele>180.9</ele>
        <time>2022-03-31T17:00:19+02:00</time>
      </trkpt>
      <trkpt lat="44.15828" lon="0.88271">
        <ele>181.3</ele>
        <time>2022-03-31T17:00:30+02:00</time>
      </trkpt>
      <trkpt lat="44.1584" lon="0.88255">
        <ele>180.3</ele>
        <time>2022-03-31T17:00:41+02:00</time>
      </trkpt>
      <trkpt lat="44.15851" lon="0.88238">
        <ele>178</ele>
        <time>2022-03-31T17:00:58+02:00</time>
      </trkpt>
      <trkpt lat="44.15862" lon="0.8822">
        <ele>175.8</ele>
        <time>2022-03-31T17:01:10+02:00</time>
      </trkpt>
      <trkpt lat="44.15872" lon="0.88206">
        <ele>173.8</ele>
        <time>2022-03-31T17:01:20+02:00</time>
      </trkpt>
      <trkpt lat="44.15884" lon="0.88194">
        <ele>171.7</ele>
        <time>2022-03-31T17:01:28+02:00</time>
      </trkpt>
      <trkpt lat="44.15894" lon="0.88179">
        <ele>169.7</ele>
        <time>2022-03-31T17:01:38+02:00</time>
      </trkpt>
      <trkpt lat="44.15904" lon="0.88166">
        <ele>167.8</ele>
        <time>2022-03-31T17:01:45+02:00</time>
      </trkpt>
      <trkpt lat="44.15915" lon="0.8815">
        <ele>166.2</ele>
        <time>2022-03-31T17:01:56+02:00</time>
      </trkpt>
      <trkpt lat="44.15927" lon="0.8814">
        <ele>165.4</ele>
        <time>2022-03-31T17:02:05+02:00</time>
      </trkpt>
      <trkpt lat="44.15938" lon="0.88124">
        <ele>164.7</ele>
        <time>2022-03-31T17:02:17+02:00</time>
      </trkpt>
      <trkpt lat="44.1595" lon="0.88108">
        <ele>164</ele>
        <time>2022-03-31T17:02:28+02:00</time>
      </trkpt>
      <trkpt lat="44.15962" lon="0.88096">
        <ele>163.3</ele>
        <time>2022-03-31T17:02:39+02:00</time>
      </trkpt>
      <trkpt lat="44.15974" lon="0.88084">
        <ele>162.5</ele>
        <time>2022-03-31T17:02:49+02:00</time>
      </trkpt>
      <trkpt lat="44.15987" lon="0.88073">
        <ele>161.6</ele>
        <time>2022-03-31T17:03:00+02:00</time>
      </trkpt>
      <trkpt lat="44.15999" lon="0.8806">
        <ele>160.6</ele>
        <time>2022-03-31T17:03:09+02:00</time>
      </trkpt>
      <trkpt lat="44.16011" lon="0.88047">
        <ele>159.8</ele>
        <time>2022-03-31T17:03:18+02:00</time>
      </trkpt>
      <trkpt lat="44.16023" lon="0.88034">
        <ele>159.1</ele>
        <time>2022-03-31T17:03:31+02:00</time>
      </trkpt>
      <trkpt lat="44.16031" lon="0.88018">
        <ele>158.6</ele>
        <time>2022-03-31T17:03:43+02:00</time>
      </trkpt>
      <trkpt lat="44.16043" lon="0.88006">
        <ele>158.1</ele>
        <time>2022-03-31T17:03:58+02:00</time>
      </trkpt>
      <trkpt lat="44.16053" lon="0.87992">
        <ele>157.8</ele>
        <time>2022-03-31T17:04:08+02:00</time>
      </trkpt>
      <trkpt lat="44.16065" lon="0.87978">
        <ele>157.5</ele>
        <time>2022-03-31T17:04:17+02:00</time>
      </trkpt>
      <trkpt lat="44.16076" lon="0.87964">
        <ele>157.2</ele>
        <time>2022-03-31T17:04:29+02:00</time>
      </trkpt>
      <trkpt lat="44.16084" lon="0.87949">
        <ele>156.9</ele>
        <time>2022-03-31T17:04:39+02:00</time>
      </trkpt>
      <trkpt lat="44.16096" lon="0.87934">
        <ele>156.2</ele>
        <time>2022-03-31T17:04:49+02:00</time>
      </trkpt>
      <trkpt lat="44.16107" lon="0.87922">
        <ele>155.4</ele>
        <time>2022-03-31T17:04:59+02:00</time>
      </trkpt>
      <trkpt lat="44.1612" lon="0.87912">
        <ele>154.2</ele>
        <time>2022-03-31T17:06:39+02:00</time>
      </trkpt>
      <trkpt lat="44.16133" lon="0.87906">
        <ele>153</ele>
        <time>2022-03-31T17:07:07+02:00</time>
      </trkpt>
      <trkpt lat="44.16146" lon="0.87895">
        <ele>151.7</ele>
        <time>2022-03-31T17:07:22+02:00</time>
      </trkpt>
      <trkpt lat="44.16158" lon="0.87882">
        <ele>150.4</ele>
        <time>2022-03-31T17:07:36+02:00</time>
      </trkpt>
      <trkpt lat="44.1617" lon="0.87873">
        <ele>149.6</ele>
        <time>2022-03-31T17:07:50+02:00</time>
      </trkpt>
      <trkpt lat="44.16184" lon="0.87863">
        <ele>150.1</ele>
        <time>2022-03-31T17:08:03+02:00</time>
      </trkpt>
      <trkpt lat="44.16196" lon="0.87852">
        <ele>150.3</ele>
        <time>2022-03-31T17:08:17+02:00</time>
      </trkpt>
      <trkpt lat="44.16208" lon="0.8784">
        <ele>150.7</ele>
        <time>2022-03-31T17:08:38+02:00</time>
      </trkpt>
      <trkpt lat="44.16217" lon="0.87826">
        <ele>150.9</ele>
        <time>2022-03-31T17:09:25+02:00</time>
      </trkpt>
      <trkpt lat="44.16229" lon="0.87817">
        <ele>151.6</ele>
        <time>2022-03-31T17:09:41+02:00</time>
      </trkpt>
      <trkpt lat="44.16242" lon="0.87804">
        <ele>152.4</ele>
        <time>2022-03-31T17:09:57+02:00</time>
      </trkpt>
      <trkpt lat="44.16257" lon="0.8779">
        <ele>153.9</ele>
        <time>2022-03-31T17:10:13+02:00</time>
      </trkpt>
      <trkpt lat="44.16271" lon="0.87785">
        <ele>156</ele>
        <time>2022-03-31T17:10:26+02:00</time>
      </trkpt>
      <trkpt lat="44.16286" lon="0.87778">
        <ele>158.1</ele>
        <time>2022-03-31T17:10:38+02:00</time>
      </trkpt>
      <trkpt lat="44.163" lon="0.87773">
        <ele>160.2</ele>
        <time>2022-03-31T17:10:49+02:00</time>
      </trkpt>
      <trkpt lat="44.16314" lon="0.87767">
        <ele>162.2</ele>
        <time>2022-03-31T17:11:14+02:00</time>
      </trkpt>
      <trkpt lat="44.16318" lon="0.87747">
        <ele>162.8</ele>
        <time>2022-03-31T17:13:23+02:00</time>
      </trkpt>
      <trkpt lat="44.16327" lon="0.87731">
        <ele>164</ele>
        <time>2022-03-31T17:13:36+02:00</time>
      </trkpt>
      <trkpt lat="44.16335" lon="0.87711">
        <ele>165.1</ele>
        <time>2022-03-31T17:13:51+02:00</time>
      </trkpt>
      <trkpt lat="44.16342" lon="0.87693">
        <ele>165.7</ele>
        <time>2022-03-31T17:14:05+02:00</time>
      </trkpt>
      <trkpt lat="44.16347" lon="0.87674">
        <ele>166</ele>
        <time>2022-03-31T17:14:17+02:00</time>
      </trkpt>
      <trkpt lat="44.16351" lon="0.87656">
        <ele>166.1</ele>
        <time>2022-03-31T17:14:29+02:00</time>
      </trkpt>
      <trkpt lat="44.16359" lon="0.87637">
        <ele>166.2</ele>
        <time>2022-03-31T17:14:42+02:00</time>
      </trkpt>
      <trkpt lat="44.16369" lon="0.87621">
        <ele>166.3</ele>
        <time>2022-03-31T17:14:56+02:00</time>
      </trkpt>
      <trkpt lat="44.16376" lon="0.87602">
        <ele>166.1</ele>
        <time>2022-03-31T17:15:11+02:00</time>
      </trkpt>
      <trkpt lat="44.16385" lon="0.87584">
        <ele>165.9</ele>
        <time>2022-03-31T17:15:25+02:00</time>
      </trkpt>
      <trkpt lat="44.16396" lon="0.87571">
        <ele>166.1</ele>
        <time>2022-03-31T17:15:36+02:00</time>
      </trkpt>
      <trkpt lat="44.16408" lon="0.87556">
        <ele>166.3</ele>
        <time>2022-03-31T17:15:47+02:00</time>
      </trkpt>
      <trkpt lat="44.1642" lon="0.87543">
        <ele>166.5</ele>
        <time>2022-03-31T17:15:59+02:00</time>
      </trkpt>
      <trkpt lat="44.16428" lon="0.87521">
        <ele>166</ele>
        <time>2022-03-31T17:16:16+02:00</time>
      </trkpt>
      <trkpt lat="44.1644" lon="0.87507">
        <ele>165.6</ele>
        <time>2022-03-31T17:16:26+02:00</time>
      </trkpt>
      <trkpt lat="44.16451" lon="0.87491">
        <ele>164.5</ele>
        <time>2022-03-31T17:16:37+02:00</time>
      </trkpt>
      <trkpt lat="44.16465" lon="0.87481">
        <ele>163.4</ele>
        <time>2022-03-31T17:16:53+02:00</time>
      </trkpt>
      <trkpt lat="44.16473" lon="0.87465">
        <ele>162</ele>
        <time>2022-03-31T17:17:07+02:00</time>
      </trkpt>
      <trkpt lat="44.16481" lon="0.87449">
        <ele>160.5</ele>
        <time>2022-03-31T17:17:22+02:00</time>
      </trkpt>
    </trkseg>
  </trk>
</gpx>